Time,TemperatureF,DewpointF,PressureIn,WindDirection,WindDirectionDegrees,WindSpeedMPH,WindSpeedGustMPH,Humidity,HourlyPrecipIn,Conditions,Clouds,dailyrainin,SoftwareType,DateUTC
2013-08-03 00:00:00,66.5,65.0,29.14,NE,37,7.0,10.0,95,0.00,,,0.00,WUHU216DAVISVP2,2013-08-03 04:00:00,
2013-08-03 00:01:00,66.5,65.0,29.14,NE,34,4.0,10.0,95,0.00,,,0.00,WUHU216DAVISVP2,2013-08-03 04:01:00,
2013-08-03 00:02:00,66.5,65.0,29.15,NE,34,1.0,10.0,95,0.00,,,0.00,WUHU216DAVISVP2,2013-08-03 04:02:00,
2013-08-03 00:06:00,66.5,65.0,29.15,SW,214,5.0,10.0,95,0.00,,,0.00,WUHU216DAVISVP2,2013-08-03 04:06:00,
2013-08-03 00:07:00,66.5,65.0,29.15,SW,214,0.0,10.0,95,0.00,,,0.00,WUHU216DAVISVP2,2013-08-03 04:07:00,
2013-08-03 00:08:00,66.4,64.9,29.15,WSW,240,3.0,10.0,95,0.00,,,0.00,WUHU216DAVISVP2,2013-08-03 04:08:00,
2013-08-03 00:11:00,66.4,64.9,29.14,WSW,239,0.0,10.0,95,0.00,,,0.00,WUHU216DAVISVP2,2013-08-03 04:11:00,
2013-08-03 00:12:00,66.4,64.9,29.14,WSW,239,2.0,10.0,95,0.00,,,0.00,WUHU216DAVISVP2,2013-08-03 04:12:00,
2013-08-03 00:13:00,66.4,64.9,29.14,WSW,239,0.0,10.0,95,0.00,,,0.00,WUHU216DAVISVP2,2013-08-03 04:13:00,
2013-08-03 00:16:00,66.3,64.8,29.14,SSW,201,0.0,10.0,95,0.00,,,0.00,WUHU216DAVISVP2,2013-08-03 04:16:00,
2013-08-03 00:17:00,66.3,64.8,29.14,SSW,201,1.0,10.0,95,0.00,,,0.00,WUHU216DAVISVP2,2013-08-03 04:17:00,
2013-08-03 00:18:00,66.3,64.8,29.14,SSW,201,1.0,7.0,95,0.00,,,0.00,WUHU216DAVISVP2,2013-08-03 04:18:00,
2013-08-03 00:22:00,66.3,64.8,29.16,SSW,212,2.0,7.0,95,0.00,,,0.00,WUHU216DAVISVP2,2013-08-03 04:22:00,
2013-08-03 00:23:00,66.3,64.8,29.16,SSW,212,1.0,7.0,95,0.00,,,0.00,WUHU216DAVISVP2,2013-08-03 04:23:00,
2013-08-03 00:28:00,66.3,64.8,29.15,SSW,211,0.0,4.0,95,0.00,,,0.00,WUHU216DAVISVP2,2013-08-03 04:28:00,
2013-08-03 00:33:00,66.3,64.8,29.15,SSW,212,0.0,4.0,95,0.00,,,0.00,WUHU216DAVISVP2,2013-08-03 04:33:00,
2013-08-03 00:38:00,66.3,64.8,29.15,SSW,212,0.0,4.0,95,0.00,,,0.00,WUHU216DAVISVP2,2013-08-03 04:38:00,
2013-08-03 00:39:00,66.3,64.8,29.15,SSW,211,0.0,4.0,95,0.00,,,0.00,WUHU216DAVISVP2,2013-08-03 04:39:00,
2013-08-03 00:43:00,65.9,64.4,29.15,NE,54,6.0,7.0,95,0.00,,,0.00,WUHU216DAVISVP2,2013-08-03 04:43:00,
2013-08-03 00:44:00,65.8,64.3,29.15,NE,54,2.0,7.0,95,0.00,,,0.00,WUHU216DAVISVP2,2013-08-03 04:44:00,
2013-08-03 00:48:00,65.4,63.9,29.14,East,89,4.0,7.0,95,0.00,,,0.00,WUHU216DAVISVP2,2013-08-03 04:48:00,
2013-08-03 00:49:00,65.3,63.8,29.14,ENE,67,5.0,7.0,95,0.00,,,0.00,WUHU216DAVISVP2,2013-08-03 04:49:00,
2013-08-03 00:53:00,65.2,63.7,29.14,ENE,70,0.0,7.0,95,0.00,,,0.00,WUHU216DAVISVP2,2013-08-03 04:53:00,
2013-08-03 00:54:00,65.2,63.7,29.14,ENE,70,0.0,7.0,95,0.00,,,0.00,WUHU216DAVISVP2,2013-08-03 04:54:00,
2013-08-03 00:58:00,65.1,63.6,29.15,ENE,71,0.0,7.0,95,0.00,,,0.00,WUHU216DAVISVP2,2013-08-03 04:58:00,
2013-08-03 00:59:00,65.1,63.6,29.15,ENE,70,0.0,7.0,95,0.00,,,0.00,WUHU216DAVISVP2,2013-08-03 04:59:00,
2013-08-03 01:00:00,65.1,63.6,29.15,ENE,70,2.0,7.0,95,0.00,,,0.00,WUHU216DAVISVP2,2013-08-03 05:00:00,
2013-08-03 01:04:00,65.0,63.5,29.15,ENE,70,0.0,6.0,95,0.00,,,0.00,WUHU216DAVISVP2,2013-08-03 05:04:00,
2013-08-03 01:05:00,65.0,63.5,29.14,ENE,71,0.0,6.0,95,0.00,,,0.00,WUHU216DAVISVP2,2013-08-03 05:05:00,
2013-08-03 01:09:00,65.0,63.5,29.14,ENE,70,0.0,4.0,95,0.00,,,0.00,WUHU216DAVISVP2,2013-08-03 05:09:00,
2013-08-03 01:10:00,65.0,63.5,29.14,ENE,71,2.0,4.0,95,0.00,,,0.00,WUHU216DAVISVP2,2013-08-03 05:10:00,
2013-08-03 01:14:00,64.9,63.4,29.14,ENE,70,0.0,4.0,95,0.00,,,0.00,WUHU216DAVISVP2,2013-08-03 05:14:00,
2013-08-03 01:15:00,64.9,63.4,29.14,ENE,70,1.0,4.0,95,0.00,,,0.00,WUHU216DAVISVP2,2013-08-03 05:15:00,
2013-08-03 01:19:00,64.9,63.4,29.14,ENE,70,0.0,4.0,95,0.00,,,0.00,WUHU216DAVISVP2,2013-08-03 05:19:00,
2013-08-03 01:20:00,64.9,63.4,29.14,ENE,70,0.0,4.0,95,0.00,,,0.00,WUHU216DAVISVP2,2013-08-03 05:20:00,
2013-08-03 01:24:00,64.9,63.4,29.13,ENE,70,0.0,4.0,95,0.00,,,0.00,WUHU216DAVISVP2,2013-08-03 05:24:00,
2013-08-03 01:25:00,64.9,63.4,29.13,ENE,70,0.0,4.0,95,0.00,,,0.00,WUHU216DAVISVP2,2013-08-03 05:25:00,
2013-08-03 01:26:00,64.9,63.4,29.13,ENE,70,0.0,4.0,95,0.00,,,0.00,WUHU216DAVISVP2,2013-08-03 05:26:00,
2013-08-03 01:27:00,64.9,63.4,29.14,ENE,70,0.0,4.0,95,0.00,,,0.00,WUHU216DAVISVP2,2013-08-03 05:27:00,
2013-08-03 01:30:00,64.9,63.4,29.14,ENE,70,0.0,2.0,95,0.00,,,0.00,WUHU216DAVISVP2,2013-08-03 05:30:00,
2013-08-03 01:31:00,64.9,63.4,29.14,ENE,70,0.0,2.0,95,0.00,,,0.00,WUHU216DAVISVP2,2013-08-03 05:31:00,
2013-08-03 01:32:00,64.9,63.4,29.14,ENE,70,0.0,2.0,95,0.00,,,0.00,WUHU216DAVISVP2,2013-08-03 05:32:00,
2013-08-03 01:35:00,64.8,63.3,29.14,ENE,70,1.0,4.0,95,0.00,,,0.00,WUHU216DAVISVP2,2013-08-03 05:35:00,
2013-08-03 01:36:00,64.9,63.4,29.14,ENE,70,0.0,4.0,95,0.00,,,0.00,WUHU216DAVISVP2,2013-08-03 05:36:00,
2013-08-03 01:38:00,64.9,63.4,29.14,ENE,71,3.0,5.0,95,0.00,,,0.00,WUHU216DAVISVP2,2013-08-03 05:38:00,
2013-08-03 01:40:00,64.9,63.4,29.13,ENE,73,0.0,5.0,95,0.00,,,0.00,WUHU216DAVISVP2,2013-08-03 05:40:00,
2013-08-03 01:41:00,64.9,63.4,29.13,ENE,73,0.0,5.0,95,0.00,,,0.00,WUHU216DAVISVP2,2013-08-03 05:41:00,
2013-08-03 01:42:00,64.9,63.4,29.13,ENE,73,0.0,5.0,95,0.00,,,0.00,WUHU216DAVISVP2,2013-08-03 05:42:00,
2013-08-03 01:43:00,64.9,63.4,29.13,ENE,73,0.0,5.0,95,0.00,,,0.00,WUHU216DAVISVP2,2013-08-03 05:43:00,
2013-08-03 01:45:00,64.9,63.4,29.13,ENE,73,0.0,5.0,95,0.00,,,0.00,WUHU216DAVISVP2,2013-08-03 05:45:00,
2013-08-03 01:46:00,64.9,63.4,29.13,ENE,73,0.0,5.0,95,0.00,,,0.00,WUHU216DAVISVP2,2013-08-03 05:46:00,
2013-08-03 01:47:00,64.9,63.4,29.13,ENE,73,0.0,5.0,95,0.00,,,0.00,WUHU216DAVISVP2,2013-08-03 05:47:00,
2013-08-03 01:48:00,64.9,63.4,29.14,ENE,73,0.0,5.0,95,0.00,,,0.00,WUHU216DAVISVP2,2013-08-03 05:48:00,
2013-08-03 01:50:00,64.9,63.4,29.13,ENE,73,0.0,5.0,95,0.00,,,0.00,WUHU216DAVISVP2,2013-08-03 05:50:00,
2013-08-03 01:51:00,64.9,63.4,29.13,ENE,73,0.0,5.0,95,0.00,,,0.00,WUHU216DAVISVP2,2013-08-03 05:51:00,
2013-08-03 01:52:00,64.9,63.4,29.13,ENE,73,0.0,5.0,95,0.00,,,0.00,WUHU216DAVISVP2,2013-08-03 05:52:00,
2013-08-03 01:53:00,64.9,63.4,29.14,ENE,73,0.0,5.0,95,0.00,,,0.00,WUHU216DAVISVP2,2013-08-03 05:53:00,
2013-08-03 01:55:00,64.9,63.4,29.14,ENE,73,1.0,5.0,95,0.00,,,0.00,WUHU216DAVISVP2,2013-08-03 05:55:00,
2013-08-03 01:56:00,64.9,63.4,29.14,ENE,73,0.0,5.0,95,0.00,,,0.00,WUHU216DAVISVP2,2013-08-03 05:56:00,
2013-08-03 01:57:00,64.9,63.4,29.14,ENE,73,0.0,5.0,95,0.00,,,0.00,WUHU216DAVISVP2,2013-08-03 05:57:00,
2013-08-03 01:58:00,64.9,63.4,29.14,ENE,73,1.0,2.0,95,0.00,,,0.00,WUHU216DAVISVP2,2013-08-03 05:58:00,
2013-08-03 02:00:00,64.9,63.4,29.14,ENE,73,0.0,2.0,95,0.00,,,0.00,WUHU216DAVISVP2,2013-08-03 06:00:00,
2013-08-03 02:02:00,64.9,63.4,29.14,ENE,73,0.0,2.0,95,0.00,,,0.00,WUHU216DAVISVP2,2013-08-03 06:02:00,
2013-08-03 02:03:00,64.9,63.4,29.14,ENE,73,1.0,2.0,95,0.00,,,0.00,WUHU216DAVISVP2,2013-08-03 06:03:00,
2013-08-03 02:06:00,64.9,63.4,29.14,ENE,73,0.0,2.0,95,0.00,,,0.00,WUHU216DAVISVP2,2013-08-03 06:06:00,
2013-08-03 02:07:00,64.9,63.4,29.14,ENE,73,0.0,2.0,95,0.00,,,0.00,WUHU216DAVISVP2,2013-08-03 06:07:00,
2013-08-03 02:08:00,64.9,63.4,29.14,ENE,73,0.0,2.0,95,0.00,,,0.00,WUHU216DAVISVP2,2013-08-03 06:08:00,
2013-08-03 02:09:00,64.9,63.4,29.14,ENE,73,2.0,3.0,95,0.00,,,0.00,WUHU216DAVISVP2,2013-08-03 06:09:00,
2013-08-03 02:11:00,64.9,63.4,29.14,ENE,73,3.0,4.0,95,0.00,,,0.00,WUHU216DAVISVP2,2013-08-03 06:11:00,
2013-08-03 02:13:00,65.0,63.5,29.14,ENE,73,1.0,4.0,95,0.00,,,0.00,WUHU216DAVISVP2,2013-08-03 06:13:00,
2013-08-03 02:14:00,65.0,63.5,29.14,ENE,73,0.0,4.0,95,0.00,,,0.00,WUHU216DAVISVP2,2013-08-03 06:14:00,
2013-08-03 02:17:00,65.0,63.5,29.14,ENE,73,1.0,6.0,95,0.00,,,0.00,WUHU216DAVISVP2,2013-08-03 06:17:00,
2013-08-03 02:18:00,65.1,63.6,29.15,WSW,251,4.0,6.0,95,0.00,,,0.00,WUHU216DAVISVP2,2013-08-03 06:18:00,
2013-08-03 02:19:00,65.1,63.6,29.15,WSW,251,2.0,6.0,95,0.00,,,0.00,WUHU216DAVISVP2,2013-08-03 06:19:00,
2013-08-03 02:22:00,65.1,63.6,29.15,WSW,250,5.0,7.0,95,0.00,,,0.00,WUHU216DAVISVP2,2013-08-03 06:22:00,
2013-08-03 02:23:00,65.1,63.6,29.15,WSW,250,2.0,7.0,95,0.00,,,0.00,WUHU216DAVISVP2,2013-08-03 06:23:00,
2013-08-03 02:24:00,65.2,63.7,29.15,WSW,250,0.0,7.0,95,0.00,,,0.00,WUHU216DAVISVP2,2013-08-03 06:24:00,
2013-08-03 02:28:00,65.2,63.7,29.14,WSW,250,0.0,7.0,95,0.00,,,0.00,WUHU216DAVISVP2,2013-08-03 06:28:00,
2013-08-03 02:29:00,65.2,63.7,29.14,WSW,250,0.0,7.0,95,0.00,,,0.00,WUHU216DAVISVP2,2013-08-03 06:29:00,
2013-08-03 02:33:00,65.2,63.7,29.14,WSW,250,2.0,7.0,95,0.00,,,0.00,WUHU216DAVISVP2,2013-08-03 06:33:00,
2013-08-03 02:34:00,65.2,63.7,29.15,WSW,250,1.0,7.0,95,0.00,,,0.00,WUHU216DAVISVP2,2013-08-03 06:34:00,
2013-08-03 02:35:00,65.3,63.8,29.15,WSW,250,1.0,7.0,95,0.00,,,0.00,WUHU216DAVISVP2,2013-08-03 06:35:00,
2013-08-03 02:38:00,65.3,63.8,29.15,WSW,250,1.0,7.0,95,0.00,,,0.00,WUHU216DAVISVP2,2013-08-03 06:38:00,
2013-08-03 02:39:00,65.3,63.8,29.15,WSW,250,0.0,7.0,95,0.00,,,0.00,WUHU216DAVISVP2,2013-08-03 06:39:00,
2013-08-03 02:40:00,65.3,63.8,29.15,WSW,250,1.0,7.0,95,0.00,,,0.00,WUHU216DAVISVP2,2013-08-03 06:40:00,
2013-08-03 02:44:00,65.2,63.7,29.15,WSW,250,0.0,5.0,95,0.00,,,0.00,WUHU216DAVISVP2,2013-08-03 06:44:00,
2013-08-03 02:45:00,65.2,63.7,29.14,WSW,250,0.0,4.0,95,0.00,,,0.00,WUHU216DAVISVP2,2013-08-03 06:45:00,
2013-08-03 02:49:00,65.2,63.7,29.14,WSW,250,0.0,4.0,95,0.00,,,0.00,WUHU216DAVISVP2,2013-08-03 06:49:00,
2013-08-03 02:50:00,65.2,63.7,29.14,WSW,250,2.0,4.0,95,0.00,,,0.00,WUHU216DAVISVP2,2013-08-03 06:50:00,
2013-08-03 02:52:00,65.3,63.8,29.14,WSW,250,0.0,4.0,95,0.00,,,0.00,WUHU216DAVISVP2,2013-08-03 06:52:00,
2013-08-03 02:54:00,65.3,63.8,29.14,WSW,250,0.0,4.0,95,0.00,,,0.00,WUHU216DAVISVP2,2013-08-03 06:54:00,
2013-08-03 02:55:00,65.3,63.8,29.14,WSW,250,0.0,4.0,95,0.00,,,0.00,WUHU216DAVISVP2,2013-08-03 06:55:00,
2013-08-03 02:57:00,65.3,63.8,29.13,WSW,250,0.0,4.0,95,0.00,,,0.00,WUHU216DAVISVP2,2013-08-03 06:57:00,
2013-08-03 02:59:00,65.3,63.8,29.13,WSW,250,0.0,4.0,95,0.00,,,0.00,WUHU216DAVISVP2,2013-08-03 06:59:00,
2013-08-03 03:00:00,65.3,63.8,29.13,WSW,250,2.0,4.0,95,0.00,,,0.00,WUHU216DAVISVP2,2013-08-03 07:00:00,
2013-08-03 03:03:00,65.3,63.8,29.13,WSW,250,0.0,4.0,95,0.00,,,0.00,WUHU216DAVISVP2,2013-08-03 07:03:00,
2013-08-03 03:04:00,65.2,63.7,29.13,WSW,250,1.0,5.0,95,0.00,,,0.00,WUHU216DAVISVP2,2013-08-03 07:04:00,
2013-08-03 03:05:00,65.2,63.7,29.13,WSW,250,4.0,5.0,95,0.00,,,0.00,WUHU216DAVISVP2,2013-08-03 07:05:00,
2013-08-03 03:06:00,65.2,64.0,29.13,WSW,250,0.0,5.0,96,0.00,,,0.00,WUHU216DAVISVP2,2013-08-03 07:06:00,
2013-08-03 03:08:00,65.2,64.0,29.13,WSW,250,1.0,5.0,96,0.00,,,0.00,WUHU216DAVISVP2,2013-08-03 07:08:00,
2013-08-03 03:09:00,65.2,64.0,29.13,WSW,250,2.0,5.0,96,0.00,,,0.00,WUHU216DAVISVP2,2013-08-03 07:09:00,
2013-08-03 03:10:00,65.2,64.0,29.13,WSW,250,0.0,5.0,96,0.00,,,0.00,WUHU216DAVISVP2,2013-08-03 07:10:00,
2013-08-03 03:11:00,65.2,64.0,29.13,WSW,250,1.0,5.0,96,0.00,,,0.00,WUHU216DAVISVP2,2013-08-03 07:11:00,
2013-08-03 03:12:00,65.2,64.0,29.13,WSW,250,0.0,5.0,96,0.00,,,0.00,WUHU216DAVISVP2,2013-08-03 07:12:00,
2013-08-03 03:14:00,65.2,64.0,29.13,WSW,250,5.0,5.0,96,0.00,,,0.00,WUHU216DAVISVP2,2013-08-03 07:14:00,
2013-08-03 03:16:00,65.2,64.0,29.13,WSW,250,1.0,5.0,96,0.00,,,0.00,WUHU216DAVISVP2,2013-08-03 07:16:00,
2013-08-03 03:17:00,65.2,64.0,29.13,WSW,250,2.0,5.0,96,0.00,,,0.00,WUHU216DAVISVP2,2013-08-03 07:17:00,
2013-08-03 03:19:00,65.2,64.0,29.12,WSW,250,0.0,5.0,96,0.00,,,0.00,WUHU216DAVISVP2,2013-08-03 07:19:00,
2013-08-03 03:20:00,65.2,64.0,29.12,WSW,250,0.0,5.0,96,0.00,,,0.00,WUHU216DAVISVP2,2013-08-03 07:20:00,
2013-08-03 03:21:00,65.1,63.9,29.13,WSW,250,0.0,5.0,96,0.00,,,0.00,WUHU216DAVISVP2,2013-08-03 07:21:00,
2013-08-03 03:22:00,65.2,64.0,29.12,WSW,250,0.0,5.0,96,0.00,,,0.00,WUHU216DAVISVP2,2013-08-03 07:22:00,
2013-08-03 03:24:00,65.2,64.0,29.13,WSW,250,0.0,5.0,96,0.00,,,0.00,WUHU216DAVISVP2,2013-08-03 07:24:00,
2013-08-03 03:25:00,65.2,64.0,29.13,WSW,250,2.0,6.0,96,0.00,,,0.00,WUHU216DAVISVP2,2013-08-03 07:25:00,
2013-08-03 03:26:00,65.2,64.0,29.12,WSW,250,0.0,6.0,96,0.00,,,0.00,WUHU216DAVISVP2,2013-08-03 07:26:00,
2013-08-03 03:27:00,65.1,63.9,29.12,WSW,250,1.0,6.0,96,0.00,,,0.00,WUHU216DAVISVP2,2013-08-03 07:27:00,
2013-08-03 03:29:00,65.2,64.0,29.12,WSW,250,0.0,6.0,96,0.00,,,0.00,WUHU216DAVISVP2,2013-08-03 07:29:00,
2013-08-03 03:30:00,65.1,63.9,29.12,WSW,250,0.0,6.0,96,0.00,,,0.00,WUHU216DAVISVP2,2013-08-03 07:30:00,
2013-08-03 03:31:00,65.2,64.0,29.12,WSW,250,1.0,6.0,96,0.00,,,0.00,WUHU216DAVISVP2,2013-08-03 07:31:00,
2013-08-03 03:32:00,65.2,64.0,29.12,WSW,250,3.0,6.0,96,0.00,,,0.00,WUHU216DAVISVP2,2013-08-03 07:32:00,
2013-08-03 03:33:00,65.1,63.9,29.12,WSW,250,0.0,6.0,96,0.00,,,0.00,WUHU216DAVISVP2,2013-08-03 07:33:00,
2013-08-03 03:34:00,65.1,63.9,29.12,WSW,250,1.0,6.0,96,0.00,,,0.00,WUHU216DAVISVP2,2013-08-03 07:34:00,
2013-08-03 03:35:00,65.1,63.9,29.12,WSW,250,0.0,6.0,96,0.00,,,0.00,WUHU216DAVISVP2,2013-08-03 07:35:00,
2013-08-03 03:36:00,65.1,63.9,29.12,WSW,250,2.0,6.0,96,0.00,,,0.00,WUHU216DAVISVP2,2013-08-03 07:36:00,
2013-08-03 03:37:00,65.1,63.9,29.12,WSW,250,0.0,6.0,96,0.00,,,0.00,WUHU216DAVISVP2,2013-08-03 07:37:00,
2013-08-03 03:38:00,65.1,63.9,29.12,WSW,250,0.0,6.0,96,0.00,,,0.00,WUHU216DAVISVP2,2013-08-03 07:38:00,
2013-08-03 03:39:00,65.1,63.9,29.12,WSW,250,0.0,6.0,96,0.00,,,0.00,WUHU216DAVISVP2,2013-08-03 07:39:00,
2013-08-03 03:40:00,65.2,64.0,29.13,WSW,250,0.0,6.0,96,0.00,,,0.00,WUHU216DAVISVP2,2013-08-03 07:40:00,
2013-08-03 03:41:00,65.1,63.9,29.13,WSW,250,0.0,6.0,96,0.00,,,0.00,WUHU216DAVISVP2,2013-08-03 07:41:00,
2013-08-03 03:42:00,65.2,64.0,29.13,WSW,250,1.0,6.0,96,0.00,,,0.00,WUHU216DAVISVP2,2013-08-03 07:42:00,
2013-08-03 03:43:00,65.2,64.0,29.12,WSW,250,0.0,6.0,96,0.00,,,0.00,WUHU216DAVISVP2,2013-08-03 07:43:00,
2013-08-03 03:44:00,65.2,64.0,29.12,WSW,250,0.0,5.0,96,0.00,,,0.00,WUHU216DAVISVP2,2013-08-03 07:44:00,
2013-08-03 03:45:00,65.2,64.0,29.12,WSW,250,0.0,5.0,96,0.00,,,0.00,WUHU216DAVISVP2,2013-08-03 07:45:00,
2013-08-03 03:46:00,65.2,64.0,29.12,WSW,250,0.0,5.0,96,0.00,,,0.00,WUHU216DAVISVP2,2013-08-03 07:46:00,
2013-08-03 03:47:00,65.2,64.0,29.12,WSW,250,0.0,5.0,96,0.00,,,0.00,WUHU216DAVISVP2,2013-08-03 07:47:00,
2013-08-03 03:48:00,65.2,64.0,29.12,WSW,250,0.0,5.0,96,0.00,,,0.00,WUHU216DAVISVP2,2013-08-03 07:48:00,
2013-08-03 03:49:00,65.2,64.0,29.12,WSW,250,1.0,5.0,96,0.00,,,0.00,WUHU216DAVISVP2,2013-08-03 07:49:00,
2013-08-03 03:50:00,65.2,64.0,29.12,WSW,250,0.0,5.0,96,0.00,,,0.00,WUHU216DAVISVP2,2013-08-03 07:50:00,
2013-08-03 03:52:00,65.2,64.0,29.12,WSW,250,0.0,5.0,96,0.00,,,0.00,WUHU216DAVISVP2,2013-08-03 07:52:00,
2013-08-03 03:53:00,65.2,64.0,29.12,WSW,250,0.0,5.0,96,0.00,,,0.00,WUHU216DAVISVP2,2013-08-03 07:53:00,
2013-08-03 03:55:00,65.2,64.0,29.12,WSW,250,0.0,5.0,96,0.00,,,0.00,WUHU216DAVISVP2,2013-08-03 07:55:00,
2013-08-03 03:56:00,65.2,64.0,29.12,WSW,250,0.0,5.0,96,0.00,,,0.00,WUHU216DAVISVP2,2013-08-03 07:56:00,
2013-08-03 03:57:00,65.2,64.0,29.12,WSW,250,0.0,4.0,96,0.00,,,0.00,WUHU216DAVISVP2,2013-08-03 07:57:00,
2013-08-03 03:58:00,65.2,64.0,29.12,WSW,250,0.0,4.0,96,0.00,,,0.00,WUHU216DAVISVP2,2013-08-03 07:58:00,
2013-08-03 04:01:00,65.2,64.0,29.12,WSW,250,5.0,5.0,96,0.00,,,0.00,WUHU216DAVISVP2,2013-08-03 08:01:00,
2013-08-03 04:02:00,65.2,64.0,29.12,WSW,250,4.0,5.0,96,0.00,,,0.00,WUHU216DAVISVP2,2013-08-03 08:02:00,
2013-08-03 04:03:00,65.2,64.0,29.13,WSW,250,4.0,5.0,96,0.00,,,0.00,WUHU216DAVISVP2,2013-08-03 08:03:00,
2013-08-03 04:06:00,65.2,64.0,29.13,WSW,250,2.0,5.0,96,0.00,,,0.00,WUHU216DAVISVP2,2013-08-03 08:06:00,
2013-08-03 04:07:00,65.2,64.0,29.13,WSW,250,1.0,5.0,96,0.00,,,0.00,WUHU216DAVISVP2,2013-08-03 08:07:00,
2013-08-03 04:08:00,65.2,64.0,29.13,WSW,250,2.0,5.0,96,0.00,,,0.00,WUHU216DAVISVP2,2013-08-03 08:08:00,
2013-08-03 04:09:00,65.3,64.1,29.13,WSW,250,2.0,5.0,96,0.00,,,0.00,WUHU216DAVISVP2,2013-08-03 08:09:00,
2013-08-03 04:12:00,65.3,64.1,29.13,WSW,250,0.0,5.0,96,0.00,,,0.00,WUHU216DAVISVP2,2013-08-03 08:12:00,
2013-08-03 04:13:00,65.3,64.1,29.13,WSW,250,0.0,5.0,96,0.00,,,0.00,WUHU216DAVISVP2,2013-08-03 08:13:00,
2013-08-03 04:14:00,65.3,64.1,29.13,WSW,250,1.0,5.0,96,0.00,,,0.00,WUHU216DAVISVP2,2013-08-03 08:14:00,
2013-08-03 04:17:00,65.3,64.1,29.13,WSW,250,1.0,5.0,96,0.00,,,0.00,WUHU216DAVISVP2,2013-08-03 08:17:00,
2013-08-03 04:18:00,65.3,64.1,29.13,WSW,250,0.0,5.0,96,0.00,,,0.00,WUHU216DAVISVP2,2013-08-03 08:18:00,
2013-08-03 04:19:00,65.3,64.1,29.13,WSW,250,1.0,5.0,96,0.00,,,0.00,WUHU216DAVISVP2,2013-08-03 08:19:00,
2013-08-03 04:22:00,65.3,64.1,29.13,WSW,250,4.0,4.0,96,0.00,,,0.00,WUHU216DAVISVP2,2013-08-03 08:22:00,
2013-08-03 04:23:00,65.3,64.1,29.13,WSW,250,4.0,4.0,96,0.00,,,0.00,WUHU216DAVISVP2,2013-08-03 08:23:00,
2013-08-03 04:24:00,65.3,64.1,29.13,WSW,250,4.0,5.0,96,0.00,,,0.00,WUHU216DAVISVP2,2013-08-03 08:24:00,
2013-08-03 04:27:00,65.3,64.1,29.14,WSW,250,2.0,5.0,96,0.00,,,0.00,WUHU216DAVISVP2,2013-08-03 08:27:00,
2013-08-03 04:28:00,65.2,64.0,29.14,WSW,250,2.0,5.0,96,0.00,,,0.00,WUHU216DAVISVP2,2013-08-03 08:28:00,
2013-08-03 04:29:00,65.2,64.0,29.14,WSW,250,2.0,5.0,96,0.00,,,0.00,WUHU216DAVISVP2,2013-08-03 08:29:00,
2013-08-03 04:33:00,65.2,64.0,29.14,NNW,337,1.0,5.0,96,0.00,,,0.00,WUHU216DAVISVP2,2013-08-03 08:33:00,
2013-08-03 04:34:00,65.2,64.0,29.14,NNW,337,2.0,5.0,96,0.00,,,0.00,WUHU216DAVISVP2,2013-08-03 08:34:00,
2013-08-03 04:38:00,65.2,64.0,29.14,NNW,337,0.0,5.0,96,0.00,,,0.00,WUHU216DAVISVP2,2013-08-03 08:38:00,
2013-08-03 04:39:00,65.2,64.0,29.14,NNW,337,2.0,5.0,96,0.00,,,0.00,WUHU216DAVISVP2,2013-08-03 08:39:00,
2013-08-03 04:40:00,65.1,63.9,29.14,NNW,337,4.0,5.0,96,0.00,,,0.00,WUHU216DAVISVP2,2013-08-03 08:40:00,
2013-08-03 04:43:00,65.0,63.8,29.14,NNW,337,1.0,5.0,96,0.00,,,0.00,WUHU216DAVISVP2,2013-08-03 08:43:00,
2013-08-03 04:44:00,65.0,63.8,29.14,NNW,337,0.0,5.0,96,0.00,,,0.00,WUHU216DAVISVP2,2013-08-03 08:44:00,
2013-08-03 04:45:00,65.0,63.8,29.14,NNW,337,2.0,5.0,96,0.00,,,0.00,WUHU216DAVISVP2,2013-08-03 08:45:00,
2013-08-03 04:48:00,64.9,63.7,29.15,NNW,337,0.0,5.0,96,0.00,,,0.00,WUHU216DAVISVP2,2013-08-03 08:48:00,
2013-08-03 04:49:00,64.9,63.7,29.15,NNW,337,2.0,5.0,96,0.00,,,0.00,WUHU216DAVISVP2,2013-08-03 08:49:00,
2013-08-03 04:50:00,64.9,63.7,29.15,NNW,337,4.0,5.0,96,0.00,,,0.00,WUHU216DAVISVP2,2013-08-03 08:50:00,
2013-08-03 04:53:00,64.9,63.7,29.15,NW,316,2.0,6.0,96,0.00,,,0.00,WUHU216DAVISVP2,2013-08-03 08:53:00,
2013-08-03 04:54:00,64.9,63.7,29.15,NW,316,2.0,6.0,96,0.00,,,0.00,WUHU216DAVISVP2,2013-08-03 08:54:00,
2013-08-03 04:55:00,64.8,63.6,29.15,NW,316,2.0,6.0,96,0.00,,,0.00,WUHU216DAVISVP2,2013-08-03 08:55:00,
2013-08-03 04:58:00,64.8,63.6,29.15,NNW,337,2.0,6.0,96,0.00,,,0.00,WUHU216DAVISVP2,2013-08-03 08:58:00,
2013-08-03 04:59:00,64.7,63.5,29.15,NNW,337,4.0,6.0,96,0.00,,,0.00,WUHU216DAVISVP2,2013-08-03 08:59:00,
2013-08-03 05:01:00,64.7,63.5,29.15,NNW,337,4.0,6.0,96,0.00,,,0.00,WUHU216DAVISVP2,2013-08-03 09:01:00,
2013-08-03 05:04:00,64.7,63.5,29.15,NNW,337,4.0,6.0,96,0.00,,,0.00,WUHU216DAVISVP2,2013-08-03 09:04:00,
2013-08-03 05:06:00,64.6,63.4,29.15,NNW,337,2.0,6.0,96,0.00,,,0.00,WUHU216DAVISVP2,2013-08-03 09:06:00,
2013-08-03 05:09:00,64.6,63.4,29.15,NNW,337,3.0,6.0,96,0.00,,,0.00,WUHU216DAVISVP2,2013-08-03 09:09:00,
2013-08-03 05:12:00,64.5,63.3,29.14,NNW,337,0.0,5.0,96,0.00,,,0.00,WUHU216DAVISVP2,2013-08-03 09:12:00,
2013-08-03 05:14:00,64.5,63.3,29.14,NNW,337,0.0,5.0,96,0.00,,,0.00,WUHU216DAVISVP2,2013-08-03 09:14:00,
2013-08-03 05:15:00,64.5,63.3,29.14,NNW,337,0.0,5.0,96,0.00,,,0.00,WUHU216DAVISVP2,2013-08-03 09:15:00,
2013-08-03 05:17:00,64.5,63.3,29.14,NNW,337,1.0,5.0,96,0.00,,,0.00,WUHU216DAVISVP2,2013-08-03 09:17:00,
2013-08-03 05:19:00,64.5,63.3,29.14,NNW,337,0.0,4.0,96,0.00,,,0.00,WUHU216DAVISVP2,2013-08-03 09:19:00,
2013-08-03 05:20:00,64.5,63.3,29.14,NNW,337,0.0,4.0,96,0.00,,,0.00,WUHU216DAVISVP2,2013-08-03 09:20:00,
2013-08-03 05:22:00,64.5,63.3,29.14,NNW,337,0.0,4.0,96,0.00,,,0.00,WUHU216DAVISVP2,2013-08-03 09:22:00,
2013-08-03 05:25:00,64.5,63.3,29.14,NNW,337,0.0,4.0,96,0.00,,,0.00,WUHU216DAVISVP2,2013-08-03 09:25:00,
2013-08-03 05:28:00,64.4,63.2,29.15,NNW,337,0.0,4.0,96,0.00,,,0.00,WUHU216DAVISVP2,2013-08-03 09:28:00,
2013-08-03 05:30:00,64.5,63.3,29.15,NNW,337,0.0,2.0,96,0.00,,,0.00,WUHU216DAVISVP2,2013-08-03 09:30:00,
2013-08-03 05:31:00,64.4,63.2,29.15,NNW,337,0.0,2.0,96,0.00,,,0.00,WUHU216DAVISVP2,2013-08-03 09:31:00,
2013-08-03 05:33:00,64.4,63.2,29.15,NNW,337,0.0,2.0,96,0.00,,,0.00,WUHU216DAVISVP2,2013-08-03 09:33:00,
2013-08-03 05:35:00,64.4,63.2,29.14,NNW,337,0.0,1.0,96,0.00,,,0.00,WUHU216DAVISVP2,2013-08-03 09:35:00,
2013-08-03 05:37:00,64.4,63.2,29.14,NNW,337,0.0,1.0,96,0.00,,,0.00,WUHU216DAVISVP2,2013-08-03 09:37:00,
2013-08-03 05:38:00,64.4,63.2,29.14,NNW,337,0.0,0.0,96,0.00,,,0.00,WUHU216DAVISVP2,2013-08-03 09:38:00,
2013-08-03 05:40:00,64.4,63.2,29.14,NNW,337,0.0,0.0,96,0.00,,,0.00,WUHU216DAVISVP2,2013-08-03 09:40:00,
2013-08-03 05:43:00,64.4,63.2,29.14,NNW,337,0.0,0.0,96,0.00,,,0.00,WUHU216DAVISVP2,2013-08-03 09:43:00,
2013-08-03 05:45:00,64.4,63.2,29.14,NNW,337,0.0,0.0,96,0.00,,,0.00,WUHU216DAVISVP2,2013-08-03 09:45:00,
2013-08-03 05:46:00,64.4,63.2,29.14,NNW,337,0.0,0.0,96,0.00,,,0.00,WUHU216DAVISVP2,2013-08-03 09:46:00,
2013-08-03 05:48:00,64.4,63.2,29.14,NNW,337,0.0,0.0,96,0.00,,,0.00,WUHU216DAVISVP2,2013-08-03 09:48:00,
2013-08-03 05:49:00,64.4,63.2,29.14,NNW,337,0.0,0.0,96,0.00,,,0.00,WUHU216DAVISVP2,2013-08-03 09:49:00,
2013-08-03 05:50:00,64.4,63.2,29.14,NNW,337,1.0,1.0,96,0.00,,,0.00,WUHU216DAVISVP2,2013-08-03 09:50:00,
2013-08-03 05:51:00,64.4,63.2,29.14,NNW,337,1.0,1.0,96,0.00,,,0.00,WUHU216DAVISVP2,2013-08-03 09:51:00,
2013-08-03 05:53:00,64.4,63.2,29.14,NNW,337,1.0,2.0,96,0.00,,,0.00,WUHU216DAVISVP2,2013-08-03 09:53:00,
2013-08-03 05:54:00,64.4,63.2,29.14,NNW,337,2.0,2.0,96,0.00,,,0.00,WUHU216DAVISVP2,2013-08-03 09:54:00,
2013-08-03 05:55:00,64.4,63.2,29.14,NNW,337,1.0,2.0,96,0.00,,,0.00,WUHU216DAVISVP2,2013-08-03 09:55:00,
2013-08-03 05:56:00,64.4,63.2,29.14,NNW,337,1.0,2.0,96,0.00,,,0.00,WUHU216DAVISVP2,2013-08-03 09:56:00,
2013-08-03 05:58:00,64.3,63.1,29.14,NNW,337,0.0,2.0,96,0.00,,,0.00,WUHU216DAVISVP2,2013-08-03 09:58:00,
2013-08-03 05:59:00,64.4,63.2,29.14,NNW,337,0.0,2.0,96,0.00,,,0.00,WUHU216DAVISVP2,2013-08-03 09:59:00,
2013-08-03 06:01:00,64.4,63.2,29.14,NNW,337,0.0,2.0,96,0.00,,,0.00,WUHU216DAVISVP2,2013-08-03 10:01:00,
2013-08-03 06:03:00,64.4,63.2,29.14,NNW,337,0.0,2.0,96,0.00,,,0.00,WUHU216DAVISVP2,2013-08-03 10:03:00,
2013-08-03 06:04:00,64.4,63.2,29.14,NNW,337,0.0,2.0,96,0.00,,,0.00,WUHU216DAVISVP2,2013-08-03 10:04:00,
2013-08-03 06:06:00,64.3,63.1,29.14,NNW,337,0.0,2.0,96,0.00,,,0.00,WUHU216DAVISVP2,2013-08-03 10:06:00,
2013-08-03 06:08:00,64.4,63.2,29.14,NNW,337,2.0,2.0,96,0.00,,,0.00,WUHU216DAVISVP2,2013-08-03 10:08:00,
2013-08-03 06:09:00,64.4,63.2,29.14,NNW,337,1.0,2.0,96,0.00,,,0.00,WUHU216DAVISVP2,2013-08-03 10:09:00,
2013-08-03 06:11:00,64.4,63.2,29.14,NNW,337,4.0,5.0,96,0.00,,,0.00,WUHU216DAVISVP2,2013-08-03 10:11:00,
2013-08-03 06:14:00,64.4,63.2,29.14,North,4,2.0,5.0,96,0.00,,,0.00,WUHU216DAVISVP2,2013-08-03 10:14:00,
2013-08-03 06:16:00,64.4,63.2,29.15,North,4,0.0,5.0,96,0.00,,,0.00,WUHU216DAVISVP2,2013-08-03 10:16:00,
2013-08-03 06:17:00,64.4,63.2,29.15,North,4,0.0,5.0,96,0.00,,,0.00,WUHU216DAVISVP2,2013-08-03 10:17:00,
2013-08-03 06:19:00,64.4,63.2,29.15,North,4,2.0,5.0,96,0.00,,,0.00,WUHU216DAVISVP2,2013-08-03 10:19:00,
2013-08-03 06:21:00,64.4,63.2,29.14,North,4,0.0,5.0,96,0.00,,,0.00,WUHU216DAVISVP2,2013-08-03 10:21:00,
2013-08-03 06:22:00,64.4,63.2,29.14,North,4,0.0,5.0,96,0.00,,,0.00,WUHU216DAVISVP2,2013-08-03 10:22:00,
2013-08-03 06:24:00,64.4,63.2,29.14,North,4,1.0,5.0,96,0.00,,,0.00,WUHU216DAVISVP2,2013-08-03 10:24:00,
2013-08-03 06:26:00,64.3,63.1,29.14,North,8,1.0,5.0,96,0.00,,,0.00,WUHU216DAVISVP2,2013-08-03 10:26:00,
2013-08-03 06:27:00,64.4,63.2,29.14,North,8,2.0,5.0,96,0.00,,,0.00,WUHU216DAVISVP2,2013-08-03 10:27:00,
2013-08-03 06:29:00,64.3,63.1,29.14,North,4,2.0,5.0,96,0.00,,,0.00,WUHU216DAVISVP2,2013-08-03 10:29:00,
2013-08-03 06:30:00,64.3,63.1,29.14,North,4,2.0,5.0,96,0.00,,,0.00,WUHU216DAVISVP2,2013-08-03 10:30:00,
2013-08-03 06:31:00,64.3,63.1,29.14,North,4,1.0,4.0,96,0.00,,,0.00,WUHU216DAVISVP2,2013-08-03 10:31:00,
2013-08-03 06:32:00,64.3,63.1,29.14,North,4,1.0,4.0,96,0.00,,,0.00,WUHU216DAVISVP2,2013-08-03 10:32:00,
2013-08-03 06:35:00,64.3,63.1,29.14,North,8,3.0,4.0,96,0.00,,,0.00,WUHU216DAVISVP2,2013-08-03 10:35:00,
2013-08-03 06:37:00,64.3,63.1,29.14,North,4,1.0,4.0,96,0.00,,,0.00,WUHU216DAVISVP2,2013-08-03 10:37:00,
2013-08-03 06:38:00,64.3,63.1,29.14,North,4,3.0,4.0,96,0.00,,,0.00,WUHU216DAVISVP2,2013-08-03 10:38:00,
2013-08-03 06:40:00,64.2,63.0,29.15,North,4,6.0,6.0,96,0.00,,,0.00,WUHU216DAVISVP2,2013-08-03 10:40:00,
2013-08-03 06:42:00,64.3,63.1,29.14,North,4,2.0,6.0,96,0.00,,,0.00,WUHU216DAVISVP2,2013-08-03 10:42:00,
2013-08-03 06:43:00,64.3,63.1,29.14,North,4,5.0,6.0,96,0.00,,,0.00,WUHU216DAVISVP2,2013-08-03 10:43:00,
2013-08-03 06:45:00,64.2,63.0,29.15,NNE,15,6.0,7.0,96,0.00,,,0.00,WUHU216DAVISVP2,2013-08-03 10:45:00,
2013-08-03 06:46:00,64.2,63.0,29.15,NNE,15,5.0,7.0,96,0.00,,,0.00,WUHU216DAVISVP2,2013-08-03 10:46:00,
2013-08-03 06:47:00,64.2,63.0,29.15,NNE,16,5.0,7.0,96,0.00,,,0.00,WUHU216DAVISVP2,2013-08-03 10:47:00,
2013-08-03 06:48:00,64.2,63.0,29.15,NNE,16,4.0,7.0,96,0.00,,,0.00,WUHU216DAVISVP2,2013-08-03 10:48:00,
2013-08-03 06:50:00,64.1,62.9,29.15,NNE,16,5.0,7.0,96,0.00,,,0.00,WUHU216DAVISVP2,2013-08-03 10:50:00,
2013-08-03 06:52:00,64.1,62.9,29.15,NNE,16,3.0,7.0,96,0.00,,,0.00,WUHU216DAVISVP2,2013-08-03 10:52:00,
2013-08-03 06:53:00,64.1,62.9,29.15,NNE,16,5.0,7.0,96,0.00,,,0.00,WUHU216DAVISVP2,2013-08-03 10:53:00,
2013-08-03 06:55:00,64.1,62.9,29.15,NNE,16,0.0,7.0,96,0.00,,,0.00,WUHU216DAVISVP2,2013-08-03 10:55:00,
2013-08-03 06:57:00,64.1,62.9,29.15,NNE,16,2.0,7.0,96,0.00,,,0.00,WUHU216DAVISVP2,2013-08-03 10:57:00,
2013-08-03 06:58:00,64.1,62.9,29.15,NNE,16,1.0,7.0,96,0.00,,,0.00,WUHU216DAVISVP2,2013-08-03 10:58:00,
2013-08-03 06:59:00,64.1,62.9,29.15,NNE,16,2.0,7.0,96,0.00,,,0.00,WUHU216DAVISVP2,2013-08-03 10:59:00,
2013-08-03 07:00:00,64.1,62.9,29.15,NNE,16,2.0,7.0,96,0.00,,,0.00,WUHU216DAVISVP2,2013-08-03 11:00:00,
2013-08-03 07:03:00,64.1,62.9,29.15,NNE,16,3.0,7.0,96,0.00,,,0.00,WUHU216DAVISVP2,2013-08-03 11:03:00,
2013-08-03 07:04:00,64.1,62.9,29.15,NNE,16,2.0,7.0,96,0.00,,,0.00,WUHU216DAVISVP2,2013-08-03 11:04:00,
2013-08-03 07:06:00,64.1,62.9,29.15,NNE,16,3.0,6.0,96,0.00,,,0.00,WUHU216DAVISVP2,2013-08-03 11:06:00,
2013-08-03 07:08:00,64.1,62.9,29.15,NNE,16,4.0,6.0,96,0.00,,,0.00,WUHU216DAVISVP2,2013-08-03 11:08:00,
2013-08-03 07:09:00,64.1,62.9,29.15,NNE,16,0.0,6.0,96,0.00,,,0.00,WUHU216DAVISVP2,2013-08-03 11:09:00,
2013-08-03 07:12:00,64.2,63.0,29.15,NNE,16,4.0,6.0,96,0.00,,,0.00,WUHU216DAVISVP2,2013-08-03 11:12:00,
2013-08-03 07:13:00,64.2,63.0,29.15,NNE,16,2.0,6.0,96,0.00,,,0.00,WUHU216DAVISVP2,2013-08-03 11:13:00,
2013-08-03 07:14:00,64.2,63.0,29.16,NNE,16,5.0,6.0,96,0.00,,,0.00,WUHU216DAVISVP2,2013-08-03 11:14:00,
2013-08-03 07:17:00,64.2,63.0,29.16,NNE,16,2.0,6.0,96,0.00,,,0.00,WUHU216DAVISVP2,2013-08-03 11:17:00,
2013-08-03 07:18:00,64.2,63.0,29.16,NNE,16,5.0,6.0,96,0.00,,,0.00,WUHU216DAVISVP2,2013-08-03 11:18:00,
2013-08-03 07:19:00,64.2,63.0,29.16,NNE,16,5.0,6.0,96,0.00,,,0.00,WUHU216DAVISVP2,2013-08-03 11:19:00,
2013-08-03 07:20:00,64.1,62.9,29.16,NNE,16,5.0,6.0,96,0.00,,,0.00,WUHU216DAVISVP2,2013-08-03 11:20:00,
2013-08-03 07:22:00,64.1,62.9,29.16,NNE,16,2.0,6.0,96,0.00,,,0.00,WUHU216DAVISVP2,2013-08-03 11:22:00,
2013-08-03 07:24:00,64.2,63.0,29.16,NNE,16,4.0,6.0,96,0.00,,,0.00,WUHU216DAVISVP2,2013-08-03 11:24:00,
2013-08-03 07:25:00,64.2,63.0,29.16,NNE,16,2.0,6.0,96,0.00,,,0.00,WUHU216DAVISVP2,2013-08-03 11:25:00,
2013-08-03 07:28:00,64.2,63.0,29.16,NNE,16,2.0,6.0,96,0.00,,,0.00,WUHU216DAVISVP2,2013-08-03 11:28:00,
2013-08-03 07:29:00,64.2,63.0,29.16,NNE,16,5.0,6.0,96,0.00,,,0.00,WUHU216DAVISVP2,2013-08-03 11:29:00,
2013-08-03 07:30:00,64.2,63.0,29.16,NNE,16,2.0,6.0,96,0.00,,,0.00,WUHU216DAVISVP2,2013-08-03 11:30:00,
2013-08-03 07:33:00,64.2,63.0,29.16,NNE,16,2.0,6.0,96,0.00,,,0.00,WUHU216DAVISVP2,2013-08-03 11:33:00,
2013-08-03 07:34:00,64.2,63.0,29.16,NNE,16,1.0,6.0,96,0.00,,,0.00,WUHU216DAVISVP2,2013-08-03 11:34:00,
2013-08-03 07:35:00,64.2,63.0,29.16,NNE,16,0.0,6.0,96,0.00,,,0.00,WUHU216DAVISVP2,2013-08-03 11:35:00,
2013-08-03 07:38:00,64.2,63.0,29.16,NNE,16,0.0,6.0,96,0.00,,,0.00,WUHU216DAVISVP2,2013-08-03 11:38:00,
2013-08-03 07:39:00,64.2,63.0,29.16,NNE,16,1.0,6.0,96,0.00,,,0.00,WUHU216DAVISVP2,2013-08-03 11:39:00,
2013-08-03 07:40:00,64.3,63.1,29.16,NNE,16,0.0,6.0,96,0.00,,,0.00,WUHU216DAVISVP2,2013-08-03 11:40:00,
2013-08-03 07:43:00,64.4,63.2,29.16,NNE,16,1.0,6.0,96,0.00,,,0.00,WUHU216DAVISVP2,2013-08-03 11:43:00,
2013-08-03 07:44:00,64.4,63.2,29.16,NNE,16,1.0,6.0,96,0.00,,,0.00,WUHU216DAVISVP2,2013-08-03 11:44:00,
2013-08-03 07:45:00,64.4,63.2,29.16,NNE,16,0.0,5.0,96,0.00,,,0.00,WUHU216DAVISVP2,2013-08-03 11:45:00,
2013-08-03 07:48:00,64.5,63.3,29.16,NNE,16,2.0,4.0,96,0.00,,,0.00,WUHU216DAVISVP2,2013-08-03 11:48:00,
2013-08-03 07:49:00,64.4,63.2,29.16,NNE,16,2.0,5.0,96,0.00,,,0.00,WUHU216DAVISVP2,2013-08-03 11:49:00,
2013-08-03 07:50:00,64.4,63.2,29.16,NNE,16,4.0,5.0,96,0.00,,,0.00,WUHU216DAVISVP2,2013-08-03 11:50:00,
2013-08-03 07:53:00,64.5,63.3,29.16,NNE,16,1.0,6.0,96,0.00,,,0.00,WUHU216DAVISVP2,2013-08-03 11:53:00,
2013-08-03 07:54:00,64.5,63.3,29.16,NNE,16,0.0,6.0,96,0.00,,,0.00,WUHU216DAVISVP2,2013-08-03 11:54:00,
2013-08-03 07:55:00,64.5,63.3,29.16,NNE,16,3.0,6.0,96,0.00,,,0.00,WUHU216DAVISVP2,2013-08-03 11:55:00,
2013-08-03 07:59:00,64.4,63.2,29.16,NNE,16,2.0,6.0,96,0.00,,,0.00,WUHU216DAVISVP2,2013-08-03 11:59:00,
2013-08-03 08:00:00,64.4,63.2,29.16,NNE,16,4.0,6.0,96,0.00,,,0.00,WUHU216DAVISVP2,2013-08-03 12:00:00,
2013-08-03 08:01:00,64.4,63.2,29.16,NNE,16,2.0,6.0,96,0.00,,,0.00,WUHU216DAVISVP2,2013-08-03 12:01:00,
2013-08-03 08:04:00,64.4,63.2,29.16,NNE,16,4.0,6.0,96,0.00,,,0.00,WUHU216DAVISVP2,2013-08-03 12:04:00,
2013-08-03 08:05:00,64.5,63.3,29.16,NNE,16,4.0,6.0,96,0.00,,,0.00,WUHU216DAVISVP2,2013-08-03 12:05:00,
2013-08-03 08:06:00,64.5,63.3,29.16,NNE,16,4.0,6.0,96,0.00,,,0.00,WUHU216DAVISVP2,2013-08-03 12:06:00,
2013-08-03 08:09:00,64.5,63.3,29.16,NNE,16,5.0,6.0,96,0.00,,,0.00,WUHU216DAVISVP2,2013-08-03 12:09:00,
2013-08-03 08:10:00,64.5,63.3,29.16,NNE,16,4.0,6.0,96,0.00,,,0.00,WUHU216DAVISVP2,2013-08-03 12:10:00,
2013-08-03 08:11:00,64.6,63.4,29.16,NNE,16,4.0,6.0,96,0.00,,,0.00,WUHU216DAVISVP2,2013-08-03 12:11:00,
2013-08-03 08:14:00,64.7,63.5,29.16,NNE,16,2.0,6.0,96,0.00,,,0.00,WUHU216DAVISVP2,2013-08-03 12:14:00,
2013-08-03 08:15:00,64.7,63.5,29.16,NNE,16,6.0,6.0,96,0.00,,,0.00,WUHU216DAVISVP2,2013-08-03 12:15:00,
2013-08-03 08:16:00,64.8,63.6,29.16,NNE,16,2.0,7.0,96,0.00,,,0.00,WUHU216DAVISVP2,2013-08-03 12:16:00,
2013-08-03 08:19:00,65.0,63.8,29.16,NNE,16,4.0,7.0,96,0.00,,,0.00,WUHU216DAVISVP2,2013-08-03 12:19:00,
2013-08-03 08:20:00,65.0,63.8,29.16,NNE,16,4.0,7.0,96,0.00,,,0.00,WUHU216DAVISVP2,2013-08-03 12:20:00,
2013-08-03 08:21:00,65.0,63.8,29.16,NNE,16,4.0,7.0,96,0.00,,,0.00,WUHU216DAVISVP2,2013-08-03 12:21:00,
2013-08-03 08:25:00,65.2,64.0,29.16,NNE,16,5.0,7.0,96,0.00,,,0.00,WUHU216DAVISVP2,2013-08-03 12:25:00,
2013-08-03 08:26:00,65.2,64.0,29.17,NNE,16,5.0,7.0,96,0.00,,,0.00,WUHU216DAVISVP2,2013-08-03 12:26:00,
2013-08-03 08:30:00,65.3,63.8,29.17,NNE,16,0.0,7.0,95,0.00,,,0.00,WUHU216DAVISVP2,2013-08-03 12:30:00,
2013-08-03 08:31:00,65.4,63.9,29.17,NNE,16,3.0,7.0,95,0.00,,,0.00,WUHU216DAVISVP2,2013-08-03 12:31:00,
2013-08-03 08:32:00,65.4,63.9,29.17,NNE,16,1.0,7.0,95,0.00,,,0.00,WUHU216DAVISVP2,2013-08-03 12:32:00,
2013-08-03 08:35:00,65.6,64.1,29.17,NNE,16,6.0,7.0,95,0.00,,,0.00,WUHU216DAVISVP2,2013-08-03 12:35:00,
2013-08-03 08:36:00,65.5,64.0,29.17,NNE,16,4.0,7.0,95,0.00,,,0.00,WUHU216DAVISVP2,2013-08-03 12:36:00,
2013-08-03 08:37:00,65.6,64.1,29.17,NNE,16,5.0,7.0,95,0.00,,,0.00,WUHU216DAVISVP2,2013-08-03 12:37:00,
2013-08-03 08:40:00,65.6,64.1,29.17,NNE,16,6.0,7.0,95,0.00,,,0.00,WUHU216DAVISVP2,2013-08-03 12:40:00,
2013-08-03 08:41:00,65.6,64.1,29.17,NNE,16,6.0,8.0,95,0.00,,,0.00,WUHU216DAVISVP2,2013-08-03 12:41:00,
2013-08-03 08:42:00,65.7,64.2,29.17,NNE,16,6.0,8.0,95,0.00,,,0.00,WUHU216DAVISVP2,2013-08-03 12:42:00,
2013-08-03 08:45:00,65.8,64.0,29.17,NNE,18,6.0,8.0,94,0.00,,,0.00,WUHU216DAVISVP2,2013-08-03 12:45:00,
2013-08-03 08:46:00,65.8,64.0,29.17,NNE,19,5.0,8.0,94,0.00,,,0.00,WUHU216DAVISVP2,2013-08-03 12:46:00,
2013-08-03 08:48:00,65.9,64.1,29.17,NNE,21,6.0,8.0,94,0.00,,,0.00,WUHU216DAVISVP2,2013-08-03 12:48:00,
2013-08-03 08:50:00,65.9,64.1,29.17,NNE,29,6.0,8.0,94,0.00,,,0.00,WUHU216DAVISVP2,2013-08-03 12:50:00,
2013-08-03 08:51:00,65.9,64.1,29.17,NNE,29,5.0,8.0,94,0.00,,,0.00,WUHU216DAVISVP2,2013-08-03 12:51:00,
2013-08-03 08:52:00,65.9,64.1,29.17,NNE,29,1.0,8.0,94,0.00,,,0.00,WUHU216DAVISVP2,2013-08-03 12:52:00,
2013-08-03 08:53:00,66.0,64.2,29.17,NNE,29,4.0,8.0,94,0.00,,,0.00,WUHU216DAVISVP2,2013-08-03 12:53:00,
2013-08-03 08:55:00,66.2,64.4,29.17,NNE,29,4.0,8.0,94,0.00,,,0.00,WUHU216DAVISVP2,2013-08-03 12:55:00,
2013-08-03 08:57:00,66.3,64.5,29.17,NNE,29,4.0,8.0,94,0.00,,,0.00,WUHU216DAVISVP2,2013-08-03 12:57:00,
2013-08-03 08:58:00,66.4,64.6,29.17,NNE,29,4.0,8.0,94,0.00,,,0.00,WUHU216DAVISVP2,2013-08-03 12:58:00,
2013-08-03 09:00:00,66.5,64.7,29.17,NNE,31,5.0,8.0,94,0.00,,,0.00,WUHU216DAVISVP2,2013-08-03 13:00:00,
2013-08-03 09:02:00,66.6,64.8,29.17,NNE,31,7.0,8.0,94,0.00,,,0.00,WUHU216DAVISVP2,2013-08-03 13:02:00,
2013-08-03 09:03:00,66.6,64.8,29.17,NNE,31,4.0,8.0,94,0.00,,,0.00,WUHU216DAVISVP2,2013-08-03 13:03:00,
2013-08-03 09:05:00,66.7,64.6,29.17,NNE,33,5.0,8.0,93,0.00,,,0.00,WUHU216DAVISVP2,2013-08-03 13:05:00,
2013-08-03 09:07:00,66.8,64.7,29.17,NNE,33,4.0,8.0,93,0.00,,,0.00,WUHU216DAVISVP2,2013-08-03 13:07:00,
2013-08-03 09:08:00,66.8,64.7,29.17,NE,48,7.0,8.0,93,0.00,,,0.00,WUHU216DAVISVP2,2013-08-03 13:08:00,
2013-08-03 09:10:00,67.0,64.9,29.17,NE,42,6.0,8.0,93,0.00,,,0.00,WUHU216DAVISVP2,2013-08-03 13:10:00,
2013-08-03 09:12:00,67.0,64.9,29.17,NNE,31,7.0,8.0,93,0.00,,,0.00,WUHU216DAVISVP2,2013-08-03 13:12:00,
2013-08-03 09:13:00,67.0,64.6,29.16,NE,39,8.0,8.0,92,0.00,,,0.00,WUHU216DAVISVP2,2013-08-03 13:13:00,
2013-08-03 09:15:00,67.1,64.7,29.17,NNE,20,6.0,9.0,92,0.00,,,0.00,WUHU216DAVISVP2,2013-08-03 13:15:00,
2013-08-03 09:18:00,67.2,64.8,29.17,ENE,58,4.0,9.0,92,0.00,,,0.00,WUHU216DAVISVP2,2013-08-03 13:18:00,
2013-08-03 09:19:00,67.2,64.8,29.17,NNE,22,8.0,9.0,92,0.00,,,0.00,WUHU216DAVISVP2,2013-08-03 13:19:00,
2013-08-03 09:21:00,67.3,64.6,29.17,NNE,33,6.0,9.0,91,0.00,,,0.00,WUHU216DAVISVP2,2013-08-03 13:21:00,
2013-08-03 09:23:00,67.4,64.7,29.17,NNE,27,6.0,9.0,91,0.00,,,0.00,WUHU216DAVISVP2,2013-08-03 13:23:00,
2013-08-03 09:24:00,67.4,64.7,29.17,North,359,6.0,9.0,91,0.00,,,0.00,WUHU216DAVISVP2,2013-08-03 13:24:00,
2013-08-03 09:26:00,67.6,64.9,29.17,NNE,29,8.0,9.0,91,0.00,,,0.00,WUHU216DAVISVP2,2013-08-03 13:26:00,
2013-08-03 09:28:00,67.6,64.9,29.17,NNE,27,7.0,9.0,91,0.00,,,0.00,WUHU216DAVISVP2,2013-08-03 13:28:00,
2013-08-03 09:29:00,67.7,65.0,29.17,NNE,27,7.0,9.0,91,0.00,,,0.00,WUHU216DAVISVP2,2013-08-03 13:29:00,
2013-08-03 09:30:00,67.7,65.0,29.17,NE,41,8.0,9.0,91,0.00,,,0.00,WUHU216DAVISVP2,2013-08-03 13:30:00,
2013-08-03 09:31:00,67.7,64.6,29.17,NE,39,5.0,9.0,90,0.00,,,0.00,WUHU216DAVISVP2,2013-08-03 13:31:00,
2013-08-03 09:33:00,67.9,65.2,29.17,NE,42,6.0,9.0,91,0.00,,,0.00,WUHU216DAVISVP2,2013-08-03 13:33:00,
2013-08-03 09:34:00,67.9,65.2,29.17,NNE,26,6.0,9.0,91,0.00,,,0.00,WUHU216DAVISVP2,2013-08-03 13:34:00,
2013-08-03 09:35:00,68.0,64.9,29.17,NNE,29,5.0,9.0,90,0.00,,,0.00,WUHU216DAVISVP2,2013-08-03 13:35:00,
2013-08-03 09:36:00,68.0,64.9,29.17,North,8,5.0,9.0,90,0.00,,,0.00,WUHU216DAVISVP2,2013-08-03 13:36:00,
2013-08-03 09:38:00,68.2,65.1,29.17,NNE,19,4.0,9.0,90,0.00,,,0.00,WUHU216DAVISVP2,2013-08-03 13:38:00,
2013-08-03 09:39:00,68.2,65.1,29.18,North,8,5.0,9.0,90,0.00,,,0.00,WUHU216DAVISVP2,2013-08-03 13:39:00,
2013-08-03 09:40:00,68.3,65.2,29.18,North,354,6.0,9.0,90,0.00,,,0.00,WUHU216DAVISVP2,2013-08-03 13:40:00,
2013-08-03 09:41:00,68.3,65.2,29.18,North,354,5.0,9.0,90,0.00,,,0.00,WUHU216DAVISVP2,2013-08-03 13:41:00,
2013-08-03 09:43:00,68.4,65.0,29.18,North,359,5.0,9.0,89,0.00,,,0.00,WUHU216DAVISVP2,2013-08-03 13:43:00,
2013-08-03 09:44:00,68.4,65.0,29.18,North,359,5.0,9.0,89,0.00,,,0.00,WUHU216DAVISVP2,2013-08-03 13:44:00,
2013-08-03 09:45:00,68.4,65.0,29.18,NW,316,5.0,9.0,89,0.00,,,0.00,WUHU216DAVISVP2,2013-08-03 13:45:00,
2013-08-03 09:46:00,68.4,64.7,29.18,North,354,5.0,9.0,88,0.00,,,0.00,WUHU216DAVISVP2,2013-08-03 13:46:00,
2013-08-03 09:48:00,68.5,64.5,29.18,North,354,6.0,9.0,87,0.00,,,0.00,WUHU216DAVISVP2,2013-08-03 13:48:00,
2013-08-03 09:49:00,68.5,64.5,29.18,North,354,6.0,8.0,87,0.00,,,0.00,WUHU216DAVISVP2,2013-08-03 13:49:00,
2013-08-03 09:50:00,68.5,64.5,29.18,North,354,6.0,8.0,87,0.00,,,0.00,WUHU216DAVISVP2,2013-08-03 13:50:00,
2013-08-03 09:51:00,68.6,64.6,29.18,North,4,5.0,8.0,87,0.00,,,0.00,WUHU216DAVISVP2,2013-08-03 13:51:00,
2013-08-03 09:53:00,68.7,64.7,29.18,North,4,7.0,7.0,87,0.00,,,0.00,WUHU216DAVISVP2,2013-08-03 13:53:00,
2013-08-03 09:54:00,68.8,64.5,29.18,North,4,6.0,7.0,86,0.00,,,0.00,WUHU216DAVISVP2,2013-08-03 13:54:00,
2013-08-03 09:55:00,68.8,64.5,29.18,North,4,4.0,7.0,86,0.00,,,0.00,WUHU216DAVISVP2,2013-08-03 13:55:00,
2013-08-03 09:57:00,69.0,65.0,29.18,North,4,5.0,7.0,87,0.00,,,0.00,WUHU216DAVISVP2,2013-08-03 13:57:00,
2013-08-03 09:58:00,69.0,65.0,29.18,North,4,5.0,7.0,87,0.00,,,0.00,WUHU216DAVISVP2,2013-08-03 13:58:00,
2013-08-03 09:59:00,69.2,65.2,29.18,North,4,2.0,7.0,87,0.00,,,0.00,WUHU216DAVISVP2,2013-08-03 13:59:00,
2013-08-03 10:00:00,69.2,65.2,29.18,North,8,5.0,7.0,87,0.00,,,0.00,WUHU216DAVISVP2,2013-08-03 14:00:00,
2013-08-03 10:02:00,69.4,65.4,29.17,North,8,4.0,7.0,87,0.00,,,0.00,WUHU216DAVISVP2,2013-08-03 14:02:00,
2013-08-03 10:03:00,69.5,65.5,29.17,North,8,3.0,7.0,87,0.00,,,0.00,WUHU216DAVISVP2,2013-08-03 14:03:00,
2013-08-03 10:04:00,69.7,65.7,29.17,North,9,4.0,7.0,87,0.00,,,0.00,WUHU216DAVISVP2,2013-08-03 14:04:00,
2013-08-03 10:05:00,69.7,65.7,29.17,NE,53,6.0,7.0,87,0.00,,,0.00,WUHU216DAVISVP2,2013-08-03 14:05:00,
2013-08-03 10:06:00,69.8,65.8,29.17,NE,54,4.0,7.0,87,0.00,,,0.00,WUHU216DAVISVP2,2013-08-03 14:06:00,
2013-08-03 10:07:00,70.0,65.6,29.17,North,4,4.0,7.0,86,0.00,,,0.00,WUHU216DAVISVP2,2013-08-03 14:07:00,
2013-08-03 10:09:00,70.1,65.4,29.18,North,349,4.0,7.0,85,0.00,,,0.00,WUHU216DAVISVP2,2013-08-03 14:09:00,
2013-08-03 10:10:00,70.1,65.7,29.18,NNE,14,6.0,7.0,86,0.00,,,0.00,WUHU216DAVISVP2,2013-08-03 14:10:00,
2013-08-03 10:11:00,70.1,65.4,29.18,NNE,14,1.0,7.0,85,0.00,,,0.00,WUHU216DAVISVP2,2013-08-03 14:11:00,
2013-08-03 10:12:00,70.1,65.4,29.18,NNW,334,7.0,7.0,85,0.00,,,0.00,WUHU216DAVISVP2,2013-08-03 14:12:00,
2013-08-03 10:14:00,70.1,65.1,29.18,NNW,328,6.0,7.0,84,0.00,,,0.00,WUHU216DAVISVP2,2013-08-03 14:14:00,
2013-08-03 10:15:00,70.1,64.7,29.18,NNW,332,6.0,7.0,83,0.00,,,0.00,WUHU216DAVISVP2,2013-08-03 14:15:00,
2013-08-03 10:16:00,70.0,64.6,29.18,NNW,337,5.0,7.0,83,0.00,,,0.00,WUHU216DAVISVP2,2013-08-03 14:16:00,
2013-08-03 10:17:00,70.1,65.0,29.18,NE,53,4.0,7.0,84,0.00,,,0.00,WUHU216DAVISVP2,2013-08-03 14:17:00,
2013-08-03 10:19:00,70.3,65.6,29.18,NE,52,2.0,7.0,85,0.00,,,0.00,WUHU216DAVISVP2,2013-08-03 14:19:00,
2013-08-03 10:20:00,70.3,65.6,29.18,NE,52,2.0,7.0,85,0.00,,,0.00,WUHU216DAVISVP2,2013-08-03 14:20:00,
2013-08-03 10:21:00,70.4,65.7,29.18,NE,43,7.0,7.0,85,0.00,,,0.00,WUHU216DAVISVP2,2013-08-03 14:21:00,
2013-08-03 10:22:00,70.5,65.1,29.18,NE,37,6.0,7.0,83,0.00,,,0.00,WUHU216DAVISVP2,2013-08-03 14:22:00,
2013-08-03 10:23:00,70.6,65.2,29.18,NE,45,5.0,7.0,83,0.00,,,0.00,WUHU216DAVISVP2,2013-08-03 14:23:00,
2013-08-03 10:24:00,70.7,65.3,29.18,NE,52,3.0,7.0,83,0.00,,,0.00,WUHU216DAVISVP2,2013-08-03 14:24:00,
2013-08-03 10:25:00,70.8,65.4,29.18,NE,34,7.0,7.0,83,0.00,,,0.00,WUHU216DAVISVP2,2013-08-03 14:25:00,
2013-08-03 10:26:00,70.8,65.1,29.18,NNE,31,6.0,8.0,82,0.00,,,0.00,WUHU216DAVISVP2,2013-08-03 14:26:00,
2013-08-03 10:27:00,70.8,64.8,29.18,NNE,16,5.0,8.0,81,0.00,,,0.00,WUHU216DAVISVP2,2013-08-03 14:27:00,
2013-08-03 10:28:00,70.9,64.9,29.18,ENE,59,6.0,8.0,81,0.00,,,0.00,WUHU216DAVISVP2,2013-08-03 14:28:00,
2013-08-03 10:30:00,71.0,64.9,29.18,NNE,18,6.0,8.0,81,0.00,,,0.00,WUHU216DAVISVP2,2013-08-03 14:30:00,
2013-08-03 10:32:00,71.0,64.9,29.17,NNE,31,1.0,8.0,81,0.00,,,0.00,WUHU216DAVISVP2,2013-08-03 14:32:00,
2013-08-03 10:33:00,71.1,65.0,29.17,NNE,30,4.0,8.0,81,0.00,,,0.00,WUHU216DAVISVP2,2013-08-03 14:33:00,
2013-08-03 10:35:00,71.1,65.0,29.17,NNE,30,5.0,8.0,81,0.00,,,0.00,WUHU216DAVISVP2,2013-08-03 14:35:00,
2013-08-03 10:37:00,71.1,65.0,29.17,NNE,31,5.0,8.0,81,0.00,,,0.00,WUHU216DAVISVP2,2013-08-03 14:37:00,
2013-08-03 10:38:00,71.2,65.1,29.18,NNE,31,3.0,8.0,81,0.00,,,0.00,WUHU216DAVISVP2,2013-08-03 14:38:00,
2013-08-03 10:40:00,71.2,65.1,29.18,North,8,4.0,8.0,81,0.00,,,0.00,WUHU216DAVISVP2,2013-08-03 14:40:00,
2013-08-03 10:42:00,71.3,65.2,29.18,North,354,4.0,8.0,81,0.00,,,0.00,WUHU216DAVISVP2,2013-08-03 14:42:00,
2013-08-03 10:43:00,71.3,65.2,29.18,North,354,4.0,8.0,81,0.00,,,0.00,WUHU216DAVISVP2,2013-08-03 14:43:00,
2013-08-03 10:45:00,71.3,65.2,29.18,NNW,341,5.0,7.0,81,0.00,,,0.00,WUHU216DAVISVP2,2013-08-03 14:45:00,
2013-08-03 10:46:00,71.3,65.2,29.18,NNW,341,5.0,7.0,81,0.00,,,0.00,WUHU216DAVISVP2,2013-08-03 14:46:00,
2013-08-03 10:47:00,71.5,65.8,29.18,North,10,5.0,7.0,82,0.00,,,0.00,WUHU216DAVISVP2,2013-08-03 14:47:00,
2013-08-03 10:48:00,71.5,65.4,29.18,North,10,2.0,7.0,81,0.00,,,0.00,WUHU216DAVISVP2,2013-08-03 14:48:00,
2013-08-03 10:50:00,71.7,65.3,29.18,North,10,1.0,7.0,80,0.00,,,0.00,WUHU216DAVISVP2,2013-08-03 14:50:00,
2013-08-03 10:51:00,71.8,65.7,29.18,North,10,4.0,7.0,81,0.00,,,0.00,WUHU216DAVISVP2,2013-08-03 14:51:00,
2013-08-03 10:52:00,72.0,65.2,29.17,ENE,57,2.0,7.0,79,0.00,,,0.00,WUHU216DAVISVP2,2013-08-03 14:52:00,
2013-08-03 10:53:00,72.3,65.5,29.17,ENE,57,3.0,7.0,79,0.00,,,0.00,WUHU216DAVISVP2,2013-08-03 14:53:00,
2013-08-03 10:55:00,72.6,65.5,29.17,NE,56,4.0,7.0,78,0.00,,,0.00,WUHU216DAVISVP2,2013-08-03 14:55:00,
2013-08-03 10:56:00,72.8,65.3,29.17,NNE,28,6.0,9.0,77,0.00,,,0.00,WUHU216DAVISVP2,2013-08-03 14:56:00,
2013-08-03 10:57:00,72.9,65.0,29.17,NNE,29,6.0,9.0,76,0.00,,,0.00,WUHU216DAVISVP2,2013-08-03 14:57:00,
2013-08-03 10:58:00,72.9,64.7,29.17,NNE,29,4.0,9.0,75,0.00,,,0.00,WUHU216DAVISVP2,2013-08-03 14:58:00,
2013-08-03 10:59:00,72.9,64.7,29.17,NNE,30,2.0,9.0,75,0.00,,,0.00,WUHU216DAVISVP2,2013-08-03 14:59:00,
2013-08-03 11:00:00,73.0,64.8,29.18,NE,38,5.0,9.0,75,0.00,,,0.00,WUHU216DAVISVP2,2013-08-03 15:00:00,
2013-08-03 11:01:00,73.0,64.4,29.18,NE,49,6.0,9.0,74,0.00,,,0.00,WUHU216DAVISVP2,2013-08-03 15:01:00,
2013-08-03 11:03:00,73.1,64.5,29.18,NE,47,1.0,9.0,74,0.00,,,0.00,WUHU216DAVISVP2,2013-08-03 15:03:00,
2013-08-03 11:05:00,73.2,64.6,29.18,NE,51,7.0,9.0,74,0.00,,,0.00,WUHU216DAVISVP2,2013-08-03 15:05:00,
2013-08-03 11:07:00,73.3,64.7,29.18,NE,52,5.0,9.0,74,0.00,,,0.00,WUHU216DAVISVP2,2013-08-03 15:07:00,
2013-08-03 11:08:00,73.4,64.4,29.18,NE,55,4.0,9.0,73,0.00,,,0.00,WUHU216DAVISVP2,2013-08-03 15:08:00,
2013-08-03 11:09:00,73.4,64.4,29.18,NE,55,4.0,9.0,73,0.00,,,0.00,WUHU216DAVISVP2,2013-08-03 15:09:00,
2013-08-03 11:10:00,73.5,64.9,29.18,NE,39,7.0,9.0,74,0.00,,,0.00,WUHU216DAVISVP2,2013-08-03 15:10:00,
2013-08-03 11:11:00,73.5,64.9,29.18,NNE,33,7.0,9.0,74,0.00,,,0.00,WUHU216DAVISVP2,2013-08-03 15:11:00,
2013-08-03 11:12:00,73.5,64.3,29.18,NE,37,8.0,9.0,73,0.00,,,0.00,WUHU216DAVISVP2,2013-08-03 15:12:00,
2013-08-03 11:13:00,73.4,64.6,29.18,NNE,12,8.0,11.0,74,0.00,,,0.00,WUHU216DAVISVP2,2013-08-03 15:13:00,
2013-08-03 11:14:00,73.4,64.6,29.18,NNE,12,7.0,11.0,74,0.00,,,0.00,WUHU216DAVISVP2,2013-08-03 15:14:00,
2013-08-03 11:15:00,73.2,64.4,29.18,NNE,32,6.0,11.0,74,0.00,,,0.00,WUHU216DAVISVP2,2013-08-03 15:15:00,
2013-08-03 11:16:00,73.2,64.4,29.18,NNE,31,4.0,11.0,74,0.00,,,0.00,WUHU216DAVISVP2,2013-08-03 15:16:00,
2013-08-03 11:17:00,73.2,64.9,29.18,NE,51,6.0,11.0,75,0.00,,,0.00,WUHU216DAVISVP2,2013-08-03 15:17:00,
2013-08-03 11:18:00,73.3,64.7,29.18,NE,44,5.0,11.0,74,0.00,,,0.00,WUHU216DAVISVP2,2013-08-03 15:18:00,
2013-08-03 11:19:00,73.3,64.3,29.18,NE,43,6.0,11.0,73,0.00,,,0.00,WUHU216DAVISVP2,2013-08-03 15:19:00,
2013-08-03 11:20:00,73.4,65.1,29.18,NNE,33,8.0,11.0,75,0.00,,,0.00,WUHU216DAVISVP2,2013-08-03 15:20:00,
2013-08-03 11:21:00,73.4,65.1,29.18,NE,39,10.0,11.0,75,0.00,,,0.00,WUHU216DAVISVP2,2013-08-03 15:21:00,
2013-08-03 11:22:00,73.4,64.4,29.18,NNE,13,7.0,11.0,73,0.00,,,0.00,WUHU216DAVISVP2,2013-08-03 15:22:00,
2013-08-03 11:24:00,73.4,64.4,29.18,NE,45,5.0,11.0,73,0.00,,,0.00,WUHU216DAVISVP2,2013-08-03 15:24:00,
2013-08-03 11:25:00,73.4,64.8,29.18,NE,45,4.0,11.0,74,0.00,,,0.00,WUHU216DAVISVP2,2013-08-03 15:25:00,
2013-08-03 11:26:00,73.5,64.9,29.18,NE,35,5.0,11.0,74,0.00,,,0.00,WUHU216DAVISVP2,2013-08-03 15:26:00,
2013-08-03 11:27:00,73.5,64.5,29.18,NE,40,9.0,11.0,73,0.00,,,0.00,WUHU216DAVISVP2,2013-08-03 15:27:00,
2013-08-03 11:29:00,73.4,64.4,29.18,NE,41,6.0,11.0,73,0.00,,,0.00,WUHU216DAVISVP2,2013-08-03 15:29:00,
2013-08-03 11:30:00,73.3,64.3,29.18,NE,52,8.0,11.0,73,0.00,,,0.00,WUHU216DAVISVP2,2013-08-03 15:30:00,
2013-08-03 11:31:00,73.3,64.7,29.18,NNE,20,6.0,10.0,74,0.00,,,0.00,WUHU216DAVISVP2,2013-08-03 15:31:00,
2013-08-03 11:32:00,73.2,64.6,29.18,NE,35,8.0,10.0,74,0.00,,,0.00,WUHU216DAVISVP2,2013-08-03 15:32:00,
2013-08-03 11:34:00,73.2,64.9,29.18,NE,48,7.0,10.0,75,0.00,,,0.00,WUHU216DAVISVP2,2013-08-03 15:34:00,
2013-08-03 11:35:00,73.2,65.3,29.19,NE,48,6.0,10.0,76,0.00,,,0.00,WUHU216DAVISVP2,2013-08-03 15:35:00,
2013-08-03 11:36:00,73.3,65.0,29.18,NNE,31,5.0,10.0,75,0.00,,,0.00,WUHU216DAVISVP2,2013-08-03 15:36:00,
2013-08-03 11:37:00,73.3,64.7,29.18,NNE,31,4.0,10.0,74,0.00,,,0.00,WUHU216DAVISVP2,2013-08-03 15:37:00,
2013-08-03 11:39:00,73.5,65.2,29.18,NNE,31,2.0,10.0,75,0.00,,,0.00,WUHU216DAVISVP2,2013-08-03 15:39:00,
2013-08-03 11:40:00,73.6,65.0,29.18,ENE,63,4.0,10.0,74,0.00,,,0.00,WUHU216DAVISVP2,2013-08-03 15:40:00,
2013-08-03 11:42:00,73.9,65.3,29.18,NE,56,4.0,10.0,74,0.00,,,0.00,WUHU216DAVISVP2,2013-08-03 15:42:00,
2013-08-03 11:43:00,74.0,65.3,29.18,ENE,59,2.0,10.0,74,0.00,,,0.00,WUHU216DAVISVP2,2013-08-03 15:43:00,
2013-08-03 11:44:00,74.2,65.5,29.18,East,82,4.0,10.0,74,0.00,,,0.00,WUHU216DAVISVP2,2013-08-03 15:44:00,
2013-08-03 11:45:00,74.4,65.7,29.18,ENE,67,1.0,10.0,74,0.00,,,0.00,WUHU216DAVISVP2,2013-08-03 15:45:00,
2013-08-03 11:47:00,74.6,66.1,29.18,ENE,59,6.0,10.0,75,0.00,,,0.00,WUHU216DAVISVP2,2013-08-03 15:47:00,
2013-08-03 11:48:00,74.7,65.5,29.18,NE,43,5.0,10.0,73,0.00,,,0.00,WUHU216DAVISVP2,2013-08-03 15:48:00,
2013-08-03 11:49:00,74.7,65.1,29.18,North,4,5.0,9.0,72,0.00,,,0.00,WUHU216DAVISVP2,2013-08-03 15:49:00,
2013-08-03 11:50:00,74.6,65.0,29.18,North,4,5.0,9.0,72,0.00,,,0.00,WUHU216DAVISVP2,2013-08-03 15:50:00,
2013-08-03 11:52:00,74.4,64.8,29.18,NNE,27,4.0,9.0,72,0.00,,,0.00,WUHU216DAVISVP2,2013-08-03 15:52:00,
2013-08-03 11:53:00,74.3,65.1,29.18,NE,46,8.0,9.0,73,0.00,,,0.00,WUHU216DAVISVP2,2013-08-03 15:53:00,
2013-08-03 11:55:00,74.3,65.6,29.18,NNE,22,8.0,9.0,74,0.00,,,0.00,WUHU216DAVISVP2,2013-08-03 15:55:00,
2013-08-03 11:57:00,74.2,65.2,29.18,NE,36,7.0,9.0,73,0.00,,,0.00,WUHU216DAVISVP2,2013-08-03 15:57:00,
2013-08-03 11:58:00,74.1,65.1,29.18,NE,54,2.0,9.0,73,0.00,,,0.00,WUHU216DAVISVP2,2013-08-03 15:58:00,
2013-08-03 12:00:00,74.2,65.5,29.18,NE,56,4.0,9.0,74,0.00,,,0.00,WUHU216DAVISVP2,2013-08-03 16:00:00,
2013-08-03 12:02:00,74.5,65.1,29.18,ENE,72,4.0,9.0,72,0.00,,,0.00,WUHU216DAVISVP2,2013-08-03 16:02:00,
2013-08-03 12:04:00,74.8,65.6,29.18,ENE,71,5.0,9.0,73,0.00,,,0.00,WUHU216DAVISVP2,2013-08-03 16:04:00,
2013-08-03 12:05:00,75.0,65.4,29.19,NNE,14,7.0,9.0,72,0.00,,,0.00,WUHU216DAVISVP2,2013-08-03 16:05:00,
2013-08-03 12:06:00,75.1,65.1,29.19,North,4,6.0,9.0,71,0.00,,,0.00,WUHU216DAVISVP2,2013-08-03 16:06:00,
2013-08-03 12:07:00,75.1,65.1,29.19,NNE,21,6.0,9.0,71,0.00,,,0.00,WUHU216DAVISVP2,2013-08-03 16:07:00,
2013-08-03 12:08:00,75.1,65.1,29.19,NNE,17,5.0,9.0,71,0.00,,,0.00,WUHU216DAVISVP2,2013-08-03 16:08:00,
2013-08-03 12:09:00,75.0,64.5,29.19,NE,41,6.0,9.0,70,0.00,,,0.00,WUHU216DAVISVP2,2013-08-03 16:09:00,
2013-08-03 12:10:00,75.0,65.4,29.19,East,83,10.0,10.0,72,0.00,,,0.00,WUHU216DAVISVP2,2013-08-03 16:10:00,
2013-08-03 12:11:00,75.0,65.0,29.19,ENE,75,6.0,11.0,71,0.00,,,0.00,WUHU216DAVISVP2,2013-08-03 16:11:00,
2013-08-03 12:12:00,75.1,64.6,29.19,NNE,31,7.0,11.0,70,0.00,,,0.00,WUHU216DAVISVP2,2013-08-03 16:12:00,
2013-08-03 12:13:00,75.1,64.6,29.19,NNE,31,7.0,11.0,70,0.00,,,0.00,WUHU216DAVISVP2,2013-08-03 16:13:00,
2013-08-03 12:14:00,75.2,64.7,29.19,NE,39,5.0,11.0,70,0.00,,,0.00,WUHU216DAVISVP2,2013-08-03 16:14:00,
2013-08-03 12:15:00,75.1,64.6,29.19,NNE,21,5.0,11.0,70,0.00,,,0.00,WUHU216DAVISVP2,2013-08-03 16:15:00,
2013-08-03 12:16:00,75.2,65.6,29.19,ENE,61,5.0,11.0,72,0.00,,,0.00,WUHU216DAVISVP2,2013-08-03 16:16:00,
2013-08-03 12:17:00,75.3,65.2,29.19,ENE,61,1.0,11.0,71,0.00,,,0.00,WUHU216DAVISVP2,2013-08-03 16:17:00,
2013-08-03 12:18:00,75.3,65.2,29.19,ENE,61,0.0,11.0,71,0.00,,,0.00,WUHU216DAVISVP2,2013-08-03 16:18:00,
2013-08-03 12:19:00,75.6,65.7,29.19,East,93,5.0,11.0,71,0.00,,,0.00,WUHU216DAVISVP2,2013-08-03 16:19:00,
2013-08-03 12:20:00,75.7,65.8,29.19,ENE,71,6.0,11.0,71,0.00,,,0.00,WUHU216DAVISVP2,2013-08-03 16:20:00,
2013-08-03 12:21:00,75.8,65.5,29.19,ENE,72,4.0,11.0,70,0.00,,,0.00,WUHU216DAVISVP2,2013-08-03 16:21:00,
2013-08-03 12:22:00,75.9,65.6,29.19,NE,54,4.0,11.0,70,0.00,,,0.00,WUHU216DAVISVP2,2013-08-03 16:22:00,
2013-08-03 12:23:00,76.0,65.7,29.19,NE,54,2.0,11.0,70,0.00,,,0.00,WUHU216DAVISVP2,2013-08-03 16:23:00,
2013-08-03 12:24:00,76.1,65.8,29.19,NNE,12,5.0,11.0,70,0.00,,,0.00,WUHU216DAVISVP2,2013-08-03 16:24:00,
2013-08-03 12:25:00,76.0,65.7,29.19,North,359,0.0,11.0,70,0.00,,,0.00,WUHU216DAVISVP2,2013-08-03 16:25:00,
2013-08-03 12:27:00,76.1,65.8,29.19,NE,41,4.0,11.0,70,0.00,,,0.00,WUHU216DAVISVP2,2013-08-03 16:27:00,
2013-08-03 12:28:00,76.2,65.9,29.19,NNE,29,7.0,11.0,70,0.00,,,0.00,WUHU216DAVISVP2,2013-08-03 16:28:00,
2013-08-03 12:30:00,76.2,65.7,29.19,NNE,18,6.0,10.0,70,0.00,,,0.00,WUHU216DAVISVP2,2013-08-03 16:30:00,
2013-08-03 12:31:00,76.1,64.8,29.19,NNE,15,4.0,10.0,68,0.00,,,0.00,WUHU216DAVISVP2,2013-08-03 16:31:00,
2013-08-03 12:32:00,75.9,65.0,29.19,North,8,4.0,10.0,69,0.00,,,0.00,WUHU216DAVISVP2,2013-08-03 16:32:00,
2013-08-03 12:33:00,75.8,65.3,29.19,NNE,29,7.0,10.0,70,0.00,,,0.00,WUHU216DAVISVP2,2013-08-03 16:33:00,
2013-08-03 12:35:00,75.6,64.7,29.19,NNE,33,1.0,10.0,69,0.00,,,0.00,WUHU216DAVISVP2,2013-08-03 16:35:00,
2013-08-03 12:36:00,75.6,65.1,29.19,NNE,33,0.0,10.0,70,0.00,,,0.00,WUHU216DAVISVP2,2013-08-03 16:36:00,
2013-08-03 12:37:00,75.7,65.2,29.19,NE,56,8.0,10.0,70,0.00,,,0.00,WUHU216DAVISVP2,2013-08-03 16:37:00,
2013-08-03 12:38:00,75.7,65.2,29.19,ENE,66,5.0,10.0,70,0.00,,,0.00,WUHU216DAVISVP2,2013-08-03 16:38:00,
2013-08-03 12:39:00,75.8,65.5,29.19,ENE,66,0.0,10.0,70,0.00,,,0.00,WUHU216DAVISVP2,2013-08-03 16:39:00,
2013-08-03 12:40:00,76.0,65.5,29.19,ENE,66,2.0,10.0,70,0.00,,,0.00,WUHU216DAVISVP2,2013-08-03 16:40:00,
2013-08-03 12:41:00,76.3,66.2,29.19,NE,47,5.0,10.0,71,0.00,,,0.00,WUHU216DAVISVP2,2013-08-03 16:41:00,
2013-08-03 12:42:00,76.4,65.5,29.19,NE,40,6.0,10.0,69,0.00,,,0.00,WUHU216DAVISVP2,2013-08-03 16:42:00,
2013-08-03 12:43:00,76.5,65.6,29.19,NE,49,7.0,10.0,69,0.00,,,0.00,WUHU216DAVISVP2,2013-08-03 16:43:00,
2013-08-03 12:44:00,76.5,65.1,29.19,NE,45,4.0,10.0,68,0.00,,,0.00,WUHU216DAVISVP2,2013-08-03 16:44:00,
2013-08-03 12:46:00,76.5,65.4,29.19,NNE,28,5.0,10.0,68,0.00,,,0.00,WUHU216DAVISVP2,2013-08-03 16:46:00,
2013-08-03 12:48:00,76.1,65.0,29.19,North,354,4.0,10.0,68,0.00,,,0.00,WUHU216DAVISVP2,2013-08-03 16:48:00,
2013-08-03 12:49:00,76.0,65.7,29.19,NE,52,5.0,10.0,70,0.00,,,0.00,WUHU216DAVISVP2,2013-08-03 16:49:00,
2013-08-03 12:51:00,76.0,65.7,29.19,NNE,14,5.0,10.0,70,0.00,,,0.00,WUHU216DAVISVP2,2013-08-03 16:51:00,
2013-08-03 12:53:00,76.0,64.9,29.19,NNE,14,0.0,10.0,68,0.00,,,0.00,WUHU216DAVISVP2,2013-08-03 16:53:00,
2013-08-03 12:54:00,76.1,65.4,29.19,East,85,5.0,9.0,69,0.00,,,0.00,WUHU216DAVISVP2,2013-08-03 16:54:00,
2013-08-03 12:57:00,76.2,64.9,29.19,NNE,31,0.0,9.0,68,0.00,,,0.00,WUHU216DAVISVP2,2013-08-03 16:57:00,
2013-08-03 12:58:00,76.3,65.4,29.19,NNW,330,6.0,9.0,69,0.00,,,0.00,WUHU216DAVISVP2,2013-08-03 16:58:00,
2013-08-03 12:59:00,76.2,65.3,29.19,NNW,335,2.0,9.0,69,0.00,,,0.00,WUHU216DAVISVP2,2013-08-03 16:59:00,
2013-08-03 13:02:00,76.1,65.6,29.19,North,354,2.0,9.0,70,0.00,,,0.00,WUHU216DAVISVP2,2013-08-03 17:02:00,
2013-08-03 13:03:00,76.1,65.6,29.19,East,95,3.0,9.0,70,0.00,,,0.00,WUHU216DAVISVP2,2013-08-03 17:03:00,
2013-08-03 13:04:00,76.2,66.1,29.19,NE,52,5.0,9.0,71,0.00,,,0.00,WUHU216DAVISVP2,2013-08-03 17:04:00,
2013-08-03 13:05:00,76.4,66.3,29.20,NE,43,9.0,9.0,71,0.00,,,0.00,WUHU216DAVISVP2,2013-08-03 17:05:00,
2013-08-03 13:07:00,76.8,65.9,29.19,NE,35,8.0,10.0,69,0.00,,,0.00,WUHU216DAVISVP2,2013-08-03 17:07:00,
2013-08-03 13:08:00,76.7,65.3,29.19,NNE,30,6.0,10.0,68,0.00,,,0.00,WUHU216DAVISVP2,2013-08-03 17:08:00,
2013-08-03 13:09:00,76.7,65.3,29.19,NNE,30,7.0,10.0,68,0.00,,,0.00,WUHU216DAVISVP2,2013-08-03 17:09:00,
2013-08-03 13:10:00,76.6,65.2,29.19,NNE,27,6.0,10.0,68,0.00,,,0.00,WUHU216DAVISVP2,2013-08-03 17:10:00,
2013-08-03 13:12:00,76.3,65.0,29.19,NNE,27,3.0,10.0,68,0.00,,,0.00,WUHU216DAVISVP2,2013-08-03 17:12:00,
2013-08-03 13:13:00,76.2,65.3,29.19,NNE,28,3.0,10.0,69,0.00,,,0.00,WUHU216DAVISVP2,2013-08-03 17:13:00,
2013-08-03 13:14:00,76.2,65.3,29.19,NE,45,6.0,10.0,69,0.00,,,0.00,WUHU216DAVISVP2,2013-08-03 17:14:00,
2013-08-03 13:15:00,76.2,64.4,29.19,ENE,70,4.0,10.0,67,0.00,,,0.00,WUHU216DAVISVP2,2013-08-03 17:15:00,
2013-08-03 13:18:00,76.4,64.6,29.19,East,90,0.0,10.0,67,0.00,,,0.00,WUHU216DAVISVP2,2013-08-03 17:18:00,
2013-08-03 13:19:00,76.5,64.3,29.19,East,90,2.0,10.0,66,0.00,,,0.00,WUHU216DAVISVP2,2013-08-03 17:19:00,
2013-08-03 13:20:00,76.6,64.8,29.19,East,90,0.0,10.0,67,0.00,,,0.00,WUHU216DAVISVP2,2013-08-03 17:20:00,
2013-08-03 13:21:00,76.6,64.8,29.19,East,90,0.0,10.0,67,0.00,,,0.00,WUHU216DAVISVP2,2013-08-03 17:21:00,
2013-08-03 13:23:00,76.7,65.3,29.19,East,90,1.0,10.0,68,0.00,,,0.00,WUHU216DAVISVP2,2013-08-03 17:23:00,
2013-08-03 13:24:00,76.8,65.4,29.20,East,89,2.0,10.0,68,0.00,,,0.00,WUHU216DAVISVP2,2013-08-03 17:24:00,
2013-08-03 13:25:00,76.9,66.2,29.20,NNW,337,5.0,10.0,69,0.00,,,0.00,WUHU216DAVISVP2,2013-08-03 17:25:00,
2013-08-03 13:26:00,76.9,66.2,29.20,NW,326,2.0,10.0,69,0.00,,,0.00,WUHU216DAVISVP2,2013-08-03 17:26:00,
2013-08-03 13:28:00,76.6,65.9,29.20,North,4,6.0,10.0,69,0.00,,,0.00,WUHU216DAVISVP2,2013-08-03 17:28:00,
2013-08-03 13:29:00,76.4,65.7,29.20,North,4,4.0,10.0,69,0.00,,,0.00,WUHU216DAVISVP2,2013-08-03 17:29:00,
2013-08-03 13:31:00,76.1,65.4,29.20,North,354,6.0,10.0,69,0.00,,,0.00,WUHU216DAVISVP2,2013-08-03 17:31:00,
2013-08-03 13:33:00,75.8,64.5,29.20,North,350,4.0,10.0,68,0.00,,,0.00,WUHU216DAVISVP2,2013-08-03 17:33:00,
2013-08-03 13:34:00,75.8,64.9,29.20,North,8,5.0,10.0,69,0.00,,,0.00,WUHU216DAVISVP2,2013-08-03 17:34:00,
2013-08-03 13:36:00,75.9,65.6,29.19,NNW,336,4.0,10.0,70,0.00,,,0.00,WUHU216DAVISVP2,2013-08-03 17:36:00,
2013-08-03 13:37:00,75.9,65.6,29.19,NNW,336,2.0,10.0,70,0.00,,,0.00,WUHU216DAVISVP2,2013-08-03 17:37:00,
2013-08-03 13:38:00,76.1,65.8,29.19,NE,56,2.0,10.0,70,0.00,,,0.00,WUHU216DAVISVP2,2013-08-03 17:38:00,
2013-08-03 13:39:00,76.2,65.5,29.19,ENE,58,2.0,10.0,69,0.00,,,0.00,WUHU216DAVISVP2,2013-08-03 17:39:00,
2013-08-03 13:42:00,76.5,64.9,29.19,NNE,16,0.0,10.0,67,0.00,,,0.00,WUHU216DAVISVP2,2013-08-03 17:42:00,
2013-08-03 13:43:00,76.6,65.5,29.19,NNW,336,6.0,10.0,68,0.00,,,0.00,WUHU216DAVISVP2,2013-08-03 17:43:00,
2013-08-03 13:44:00,76.6,65.2,29.19,NW,318,5.0,10.0,68,0.00,,,0.00,WUHU216DAVISVP2,2013-08-03 17:44:00,
2013-08-03 13:47:00,76.5,65.6,29.19,NNW,327,7.0,8.0,69,0.00,,,0.00,WUHU216DAVISVP2,2013-08-03 17:47:00,
2013-08-03 13:48:00,76.4,65.5,29.19,NW,320,5.0,9.0,69,0.00,,,0.00,WUHU216DAVISVP2,2013-08-03 17:48:00,
2013-08-03 13:49:00,76.3,65.0,29.19,NW,314,7.0,9.0,68,0.00,,,0.00,WUHU216DAVISVP2,2013-08-03 17:49:00,
2013-08-03 13:50:00,76.3,65.4,29.20,NW,318,6.0,9.0,69,0.00,,,0.00,WUHU216DAVISVP2,2013-08-03 17:50:00,
2013-08-03 13:53:00,76.4,65.1,29.19,NNE,25,7.0,9.0,68,0.00,,,0.00,WUHU216DAVISVP2,2013-08-03 17:53:00,
2013-08-03 13:54:00,76.4,65.1,29.19,North,8,6.0,9.0,68,0.00,,,0.00,WUHU216DAVISVP2,2013-08-03 17:54:00,
2013-08-03 13:55:00,76.4,65.5,29.19,NW,311,6.0,9.0,69,0.00,,,0.00,WUHU216DAVISVP2,2013-08-03 17:55:00,
2013-08-03 13:58:00,76.2,65.9,29.19,NNW,328,7.0,9.0,70,0.00,,,0.00,WUHU216DAVISVP2,2013-08-03 17:58:00,
2013-08-03 13:59:00,76.2,65.5,29.19,NW,324,7.0,9.0,69,0.00,,,0.00,WUHU216DAVISVP2,2013-08-03 17:59:00,
2013-08-03 14:00:00,76.1,65.4,29.19,WNW,301,5.0,9.0,69,0.00,,,0.00,WUHU216DAVISVP2,2013-08-03 18:00:00,
2013-08-03 14:03:00,76.2,65.9,29.19,NW,305,4.0,9.0,70,0.00,,,0.00,WUHU216DAVISVP2,2013-08-03 18:03:00,
2013-08-03 14:04:00,76.2,65.1,29.19,NW,305,2.0,9.0,68,0.00,,,0.00,WUHU216DAVISVP2,2013-08-03 18:04:00,
2013-08-03 14:05:00,76.4,65.7,29.20,NW,305,2.0,9.0,69,0.00,,,0.00,WUHU216DAVISVP2,2013-08-03 18:05:00,
2013-08-03 14:06:00,76.4,65.7,29.20,NW,305,5.0,9.0,69,0.00,,,0.00,WUHU216DAVISVP2,2013-08-03 18:06:00,
2013-08-03 14:08:00,76.6,65.2,29.19,NW,308,4.0,9.0,68,0.00,,,0.00,WUHU216DAVISVP2,2013-08-03 18:08:00,
2013-08-03 14:09:00,76.7,65.8,29.19,NW,314,1.0,9.0,69,0.00,,,0.00,WUHU216DAVISVP2,2013-08-03 18:09:00,
2013-08-03 14:11:00,76.9,66.0,29.19,NNW,337,5.0,9.0,69,0.00,,,0.00,WUHU216DAVISVP2,2013-08-03 18:11:00,
2013-08-03 14:13:00,77.0,66.0,29.20,NNE,30,8.0,10.0,69,0.00,,,0.00,WUHU216DAVISVP2,2013-08-03 18:13:00,
2013-08-03 14:14:00,77.0,66.5,29.20,NNE,31,9.0,10.0,70,0.00,,,0.00,WUHU216DAVISVP2,2013-08-03 18:14:00,
2013-08-03 14:17:00,77.1,65.9,29.20,North,4,8.0,10.0,68,0.00,,,0.00,WUHU216DAVISVP2,2013-08-03 18:17:00,
2013-08-03 14:18:00,77.2,65.8,29.20,NW,324,5.0,10.0,68,0.00,,,0.00,WUHU216DAVISVP2,2013-08-03 18:18:00,
2013-08-03 14:19:00,77.2,65.8,29.20,North,4,8.0,10.0,68,0.00,,,0.00,WUHU216DAVISVP2,2013-08-03 18:19:00,
2013-08-03 14:22:00,77.1,66.1,29.19,NE,52,7.0,11.0,69,0.00,,,0.00,WUHU216DAVISVP2,2013-08-03 18:22:00,
2013-08-03 14:24:00,77.2,66.2,29.19,NE,42,1.0,11.0,69,0.00,,,0.00,WUHU216DAVISVP2,2013-08-03 18:24:00,
2013-08-03 14:27:00,77.4,65.6,29.20,NNE,31,7.0,11.0,67,0.00,,,0.00,WUHU216DAVISVP2,2013-08-03 18:27:00,
2013-08-03 14:29:00,77.4,66.0,29.20,North,359,1.0,11.0,68,0.00,,,0.00,WUHU216DAVISVP2,2013-08-03 18:29:00,
2013-08-03 14:30:00,77.4,66.4,29.20,NNE,18,6.0,11.0,69,0.00,,,0.00,WUHU216DAVISVP2,2013-08-03 18:30:00,
2013-08-03 14:32:00,77.6,65.8,29.19,North,354,4.0,11.0,67,0.00,,,0.00,WUHU216DAVISVP2,2013-08-03 18:32:00,
2013-08-03 14:34:00,77.5,64.6,29.19,NNW,333,7.0,12.0,64,0.00,,,0.00,WUHU216DAVISVP2,2013-08-03 18:34:00,
2013-08-03 14:35:00,77.4,64.5,29.19,NNW,332,8.0,12.0,64,0.00,,,0.00,WUHU216DAVISVP2,2013-08-03 18:35:00,
2013-08-03 14:37:00,77.3,64.4,29.19,NNW,347,7.0,12.0,64,0.00,,,0.00,WUHU216DAVISVP2,2013-08-03 18:37:00,
2013-08-03 14:38:00,77.3,64.4,29.19,North,359,6.0,12.0,64,0.00,,,0.00,WUHU216DAVISVP2,2013-08-03 18:38:00,
2013-08-03 14:39:00,77.3,64.6,29.19,North,354,8.0,12.0,65,0.00,,,0.00,WUHU216DAVISVP2,2013-08-03 18:39:00,
2013-08-03 14:40:00,77.3,64.6,29.19,NNE,16,10.0,12.0,65,0.00,,,0.00,WUHU216DAVISVP2,2013-08-03 18:40:00,
2013-08-03 14:42:00,77.2,65.4,29.19,NE,44,8.0,13.0,67,0.00,,,0.00,WUHU216DAVISVP2,2013-08-03 18:42:00,
2013-08-03 14:43:00,77.1,65.7,29.19,NE,42,5.0,13.0,68,0.00,,,0.00,WUHU216DAVISVP2,2013-08-03 18:43:00,
2013-08-03 14:44:00,77.1,65.7,29.19,NNE,28,6.0,13.0,68,0.00,,,0.00,WUHU216DAVISVP2,2013-08-03 18:44:00,
2013-08-03 14:45:00,77.1,66.1,29.19,NE,36,9.0,13.0,69,0.00,,,0.00,WUHU216DAVISVP2,2013-08-03 18:45:00,
2013-08-03 14:47:00,77.1,65.7,29.19,North,4,8.0,13.0,68,0.00,,,0.00,WUHU216DAVISVP2,2013-08-03 18:47:00,
2013-08-03 14:48:00,77.1,65.7,29.19,NNE,23,7.0,13.0,68,0.00,,,0.00,WUHU216DAVISVP2,2013-08-03 18:48:00,
2013-08-03 14:49:00,77.1,65.7,29.19,NNW,341,8.0,13.0,68,0.00,,,0.00,WUHU216DAVISVP2,2013-08-03 18:49:00,
2013-08-03 14:50:00,77.1,65.7,29.19,NNW,341,5.0,13.0,68,0.00,,,0.00,WUHU216DAVISVP2,2013-08-03 18:50:00,
2013-08-03 14:53:00,77.0,65.2,29.20,NW,318,10.0,13.0,67,0.00,,,0.00,WUHU216DAVISVP2,2013-08-03 18:53:00,
2013-08-03 14:54:00,77.0,66.3,29.20,North,4,14.0,15.0,69,0.00,,,0.00,WUHU216DAVISVP2,2013-08-03 18:54:00,
2013-08-03 14:55:00,76.9,66.2,29.20,North,9,16.0,18.0,69,0.00,,,0.00,WUHU216DAVISVP2,2013-08-03 18:55:00,
2013-08-03 14:58:00,76.5,66.2,29.20,North,8,11.0,18.0,70,0.00,,,0.00,WUHU216DAVISVP2,2013-08-03 18:58:00,
2013-08-03 15:00:00,76.2,66.1,29.20,NE,39,7.0,18.0,71,0.00,,,0.00,WUHU216DAVISVP2,2013-08-03 19:00:00,
2013-08-03 15:03:00,76.1,66.2,29.20,NE,37,8.0,18.0,71,0.00,,,0.00,WUHU216DAVISVP2,2013-08-03 19:03:00,
2013-08-03 15:05:00,76.2,66.3,29.20,NNE,16,8.0,18.0,71,0.00,,,0.00,WUHU216DAVISVP2,2013-08-03 19:05:00,
2013-08-03 15:08:00,76.7,66.4,29.20,NE,34,11.0,18.0,70,0.00,,,0.00,WUHU216DAVISVP2,2013-08-03 19:08:00,
2013-08-03 15:10:00,76.9,66.6,29.19,NNE,23,9.0,18.0,70,0.00,,,0.00,WUHU216DAVISVP2,2013-08-03 19:10:00,
2013-08-03 15:11:00,76.9,66.6,29.19,North,8,7.0,18.0,70,0.00,,,0.00,WUHU216DAVISVP2,2013-08-03 19:11:00,
2013-08-03 15:13:00,77.1,65.5,29.19,ENE,65,3.0,18.0,67,0.00,,,0.00,WUHU216DAVISVP2,2013-08-03 19:13:00,
2013-08-03 15:15:00,77.2,66.0,29.19,NNE,33,8.0,16.0,68,0.00,,,0.00,WUHU216DAVISVP2,2013-08-03 19:15:00,
2013-08-03 15:16:00,77.3,66.6,29.19,NNE,18,6.0,14.0,69,0.00,,,0.00,WUHU216DAVISVP2,2013-08-03 19:16:00,
2013-08-03 15:18:00,77.6,66.8,29.19,NE,39,6.0,13.0,69,0.00,,,0.00,WUHU216DAVISVP2,2013-08-03 19:18:00,
2013-08-03 15:21:00,77.9,66.9,29.19,ENE,58,10.0,13.0,69,0.00,,,0.00,WUHU216DAVISVP2,2013-08-03 19:21:00,
2013-08-03 15:24:00,77.7,65.0,29.19,ENE,68,5.0,13.0,65,0.00,,,0.00,WUHU216DAVISVP2,2013-08-03 19:24:00,
2013-08-03 15:26:00,77.6,65.3,29.19,NE,39,8.0,13.0,66,0.00,,,0.00,WUHU216DAVISVP2,2013-08-03 19:26:00,
2013-08-03 15:27:00,77.5,65.2,29.19,NNE,12,8.0,13.0,66,0.00,,,0.00,WUHU216DAVISVP2,2013-08-03 19:27:00,
2013-08-03 15:29:00,77.2,65.4,29.19,North,359,7.0,13.0,67,0.00,,,0.00,WUHU216DAVISVP2,2013-08-03 19:29:00,
2013-08-03 15:31:00,77.1,65.5,29.19,NE,50,10.0,13.0,67,0.00,,,0.00,WUHU216DAVISVP2,2013-08-03 19:31:00,
2013-08-03 15:32:00,77.2,65.6,29.19,NE,51,6.0,13.0,67,0.00,,,0.00,WUHU216DAVISVP2,2013-08-03 19:32:00,
2013-08-03 15:34:00,77.3,65.3,29.19,NNE,28,8.0,13.0,66,0.00,,,0.00,WUHU216DAVISVP2,2013-08-03 19:34:00,
2013-08-03 15:36:00,77.3,66.1,29.19,North,359,2.0,13.0,68,0.00,,,0.00,WUHU216DAVISVP2,2013-08-03 19:36:00,
2013-08-03 15:37:00,77.4,66.6,29.19,NNW,335,7.0,13.0,69,0.00,,,0.00,WUHU216DAVISVP2,2013-08-03 19:37:00,
2013-08-03 15:39:00,77.6,66.4,29.19,North,359,9.0,13.0,68,0.00,,,0.00,WUHU216DAVISVP2,2013-08-03 19:39:00,
2013-08-03 15:41:00,77.5,64.1,29.20,NNW,337,11.0,12.0,63,0.00,,,0.00,WUHU216DAVISVP2,2013-08-03 19:41:00,
2013-08-03 15:42:00,77.5,62.3,29.20,NNW,333,9.0,12.0,59,0.00,,,0.00,WUHU216DAVISVP2,2013-08-03 19:42:00,
2013-08-03 15:44:00,77.3,61.6,29.20,NW,317,8.0,13.0,58,0.00,,,0.00,WUHU216DAVISVP2,2013-08-03 19:44:00,
2013-08-03 15:46:00,77.4,62.2,29.20,NNW,346,8.0,13.0,59,0.00,,,0.00,WUHU216DAVISVP2,2013-08-03 19:46:00,
2013-08-03 15:47:00,77.5,63.2,29.20,North,354,6.0,13.0,61,0.00,,,0.00,WUHU216DAVISVP2,2013-08-03 19:47:00,
2013-08-03 15:49:00,77.6,63.1,29.19,NNW,338,7.0,13.0,61,0.00,,,0.00,WUHU216DAVISVP2,2013-08-03 19:49:00,
2013-08-03 15:51:00,77.8,63.0,29.19,North,10,9.0,13.0,60,0.00,,,0.00,WUHU216DAVISVP2,2013-08-03 19:51:00,
2013-08-03 15:52:00,77.8,63.0,29.19,NNE,29,8.0,13.0,60,0.00,,,0.00,WUHU216DAVISVP2,2013-08-03 19:52:00,
2013-08-03 15:53:00,77.8,63.0,29.19,NE,39,7.0,13.0,60,0.00,,,0.00,WUHU216DAVISVP2,2013-08-03 19:53:00,
2013-08-03 15:54:00,77.9,64.1,29.19,NE,45,6.0,13.0,62,0.00,,,0.00,WUHU216DAVISVP2,2013-08-03 19:54:00,
2013-08-03 15:55:00,78.0,64.2,29.19,NNE,21,8.0,13.0,62,0.00,,,0.00,WUHU216DAVISVP2,2013-08-03 19:55:00,
2013-08-03 15:56:00,78.0,63.7,29.19,NNE,12,8.0,13.0,61,0.00,,,0.00,WUHU216DAVISVP2,2013-08-03 19:56:00,
2013-08-03 15:58:00,78.1,63.8,29.19,North,359,7.0,13.0,61,0.00,,,0.00,WUHU216DAVISVP2,2013-08-03 19:58:00,
2013-08-03 16:00:00,78.0,63.2,29.19,NW,323,5.0,13.0,60,0.00,,,0.00,WUHU216DAVISVP2,2013-08-03 20:00:00,
2013-08-03 16:01:00,78.0,63.7,29.19,NNE,12,6.0,13.0,61,0.00,,,0.00,WUHU216DAVISVP2,2013-08-03 20:01:00,
2013-08-03 16:03:00,78.1,63.3,29.20,NNE,27,7.0,12.0,60,0.00,,,0.00,WUHU216DAVISVP2,2013-08-03 20:03:00,
2013-08-03 16:05:00,78.2,63.4,29.19,NNW,345,9.0,12.0,60,0.00,,,0.00,WUHU216DAVISVP2,2013-08-03 20:05:00,
2013-08-03 16:06:00,78.2,63.4,29.20,NNW,331,8.0,12.0,60,0.00,,,0.00,WUHU216DAVISVP2,2013-08-03 20:06:00,
2013-08-03 16:08:00,78.3,62.0,29.19,NW,319,6.0,12.0,57,0.00,,,0.00,WUHU216DAVISVP2,2013-08-03 20:08:00,
2013-08-03 16:10:00,78.2,61.4,29.19,NNW,343,10.0,13.0,56,0.00,,,0.00,WUHU216DAVISVP2,2013-08-03 20:10:00,
2013-08-03 16:11:00,78.2,61.4,29.19,NNW,334,7.0,13.0,56,0.00,,,0.00,WUHU216DAVISVP2,2013-08-03 20:11:00,
2013-08-03 16:13:00,78.0,61.2,29.19,NNW,339,10.0,13.0,56,0.00,,,0.00,WUHU216DAVISVP2,2013-08-03 20:13:00,
2013-08-03 16:14:00,77.9,61.1,29.19,NW,324,8.0,13.0,56,0.00,,,0.00,WUHU216DAVISVP2,2013-08-03 20:14:00,
2013-08-03 16:15:00,77.9,62.1,29.19,NNE,14,5.0,13.0,58,0.00,,,0.00,WUHU216DAVISVP2,2013-08-03 20:15:00,
2013-08-03 16:16:00,77.9,62.1,29.19,NNE,18,6.0,13.0,58,0.00,,,0.00,WUHU216DAVISVP2,2013-08-03 20:16:00,
2013-08-03 16:18:00,78.0,60.7,29.19,NNE,12,8.0,13.0,55,0.00,,,0.00,WUHU216DAVISVP2,2013-08-03 20:18:00,
2013-08-03 16:19:00,78.0,61.2,29.19,NNW,339,10.0,13.0,56,0.00,,,0.00,WUHU216DAVISVP2,2013-08-03 20:19:00,
2013-08-03 16:20:00,78.1,60.8,29.19,NW,320,6.0,13.0,55,0.00,,,0.00,WUHU216DAVISVP2,2013-08-03 20:20:00,
2013-08-03 16:21:00,78.1,60.8,29.19,North,354,10.0,13.0,55,0.00,,,0.00,WUHU216DAVISVP2,2013-08-03 20:21:00,
2013-08-03 16:23:00,78.2,60.9,29.19,North,8,8.0,13.0,55,0.00,,,0.00,WUHU216DAVISVP2,2013-08-03 20:23:00,
2013-08-03 16:25:00,78.3,58.2,29.19,NNW,328,10.0,14.0,50,0.00,,,0.00,WUHU216DAVISVP2,2013-08-03 20:25:00,
2013-08-03 16:26:00,78.3,58.1,29.19,NW,323,6.0,14.0,50,0.00,,,0.00,WUHU216DAVISVP2,2013-08-03 20:26:00,
2013-08-03 16:28:00,78.3,58.7,29.19,NNW,347,11.0,14.0,51,0.00,,,0.00,WUHU216DAVISVP2,2013-08-03 20:28:00,
2013-08-03 16:30:00,78.3,58.2,29.19,North,4,8.0,15.0,50,0.00,,,0.00,WUHU216DAVISVP2,2013-08-03 20:30:00,
2013-08-03 16:31:00,78.4,57.7,29.19,NW,316,8.0,16.0,49,0.00,,,0.00,WUHU216DAVISVP2,2013-08-03 20:31:00,
2013-08-03 16:33:00,78.3,57.7,29.18,WNW,299,13.0,16.0,49,0.00,,,0.00,WUHU216DAVISVP2,2013-08-03 20:33:00,
2013-08-03 16:34:00,78.3,58.8,29.19,NW,309,7.0,16.0,51,0.00,,,0.00,WUHU216DAVISVP2,2013-08-03 20:34:00,
2013-08-03 16:35:00,78.3,59.9,29.18,North,354,6.0,16.0,53,0.00,,,0.00,WUHU216DAVISVP2,2013-08-03 20:35:00,
2013-08-03 16:36:00,78.4,59.5,29.18,NW,308,10.0,16.0,52,0.00,,,0.00,WUHU216DAVISVP2,2013-08-03 20:36:00,
2013-08-03 16:37:00,78.6,60.2,29.19,NW,326,6.0,16.0,53,0.00,,,0.00,WUHU216DAVISVP2,2013-08-03 20:37:00,
2013-08-03 16:38:00,78.6,59.1,29.19,NNW,330,7.0,16.0,51,0.00,,,0.00,WUHU216DAVISVP2,2013-08-03 20:38:00,
2013-08-03 16:39:00,78.7,59.2,29.19,NNW,345,11.0,16.0,51,0.00,,,0.00,WUHU216DAVISVP2,2013-08-03 20:39:00,
2013-08-03 16:40:00,78.6,57.9,29.19,NNW,337,8.0,16.0,49,0.00,,,0.00,WUHU216DAVISVP2,2013-08-03 20:40:00,
2013-08-03 16:41:00,78.6,59.1,29.19,NNW,342,7.0,16.0,51,0.00,,,0.00,WUHU216DAVISVP2,2013-08-03 20:41:00,
2013-08-03 16:42:00,78.6,59.1,29.19,NNW,334,8.0,16.0,51,0.00,,,0.00,WUHU216DAVISVP2,2013-08-03 20:42:00,
2013-08-03 16:43:00,78.6,57.9,29.19,NNW,330,6.0,16.0,49,0.00,,,0.00,WUHU216DAVISVP2,2013-08-03 20:43:00,
2013-08-03 16:44:00,78.6,58.5,29.19,NNW,329,5.0,16.0,50,0.00,,,0.00,WUHU216DAVISVP2,2013-08-03 20:44:00,
2013-08-03 16:45:00,78.6,60.2,29.19,NNW,329,10.0,16.0,53,0.00,,,0.00,WUHU216DAVISVP2,2013-08-03 20:45:00,
2013-08-03 16:47:00,78.7,62.4,29.18,NW,326,9.0,16.0,57,0.00,,,0.00,WUHU216DAVISVP2,2013-08-03 20:47:00,
2013-08-03 16:49:00,78.5,62.7,29.18,NNW,339,8.0,16.0,58,0.00,,,0.00,WUHU216DAVISVP2,2013-08-03 20:49:00,
2013-08-03 16:50:00,78.5,63.2,29.18,North,10,10.0,16.0,59,0.00,,,0.00,WUHU216DAVISVP2,2013-08-03 20:50:00,
2013-08-03 16:51:00,78.3,62.5,29.19,NNW,346,10.0,13.0,58,0.00,,,0.00,WUHU216DAVISVP2,2013-08-03 20:51:00,
2013-08-03 16:52:00,77.9,62.1,29.19,North,354,10.0,13.0,58,0.00,,,0.00,WUHU216DAVISVP2,2013-08-03 20:52:00,
2013-08-03 16:54:00,77.5,63.2,29.19,North,359,8.0,13.0,61,0.00,,,0.00,WUHU216DAVISVP2,2013-08-03 20:54:00,
2013-08-03 16:55:00,77.3,62.1,29.19,North,359,7.0,13.0,59,0.00,,,0.00,WUHU216DAVISVP2,2013-08-03 20:55:00,
2013-08-03 16:56:00,77.2,62.9,29.19,North,4,6.0,13.0,61,0.00,,,0.00,WUHU216DAVISVP2,2013-08-03 20:56:00,
2013-08-03 16:57:00,77.3,63.0,29.19,NNE,16,9.0,13.0,61,0.00,,,0.00,WUHU216DAVISVP2,2013-08-03 20:57:00,
2013-08-03 16:58:00,77.3,63.0,29.19,NNE,16,9.0,13.0,61,0.00,,,0.00,WUHU216DAVISVP2,2013-08-03 20:58:00,
2013-08-03 16:59:00,77.4,62.2,29.19,NNE,16,9.0,13.0,59,0.00,,,0.00,WUHU216DAVISVP2,2013-08-03 20:59:00,
2013-08-03 17:00:00,77.5,62.3,29.19,North,359,10.0,13.0,59,0.00,,,0.00,WUHU216DAVISVP2,2013-08-03 21:00:00,
2013-08-03 17:01:00,77.6,62.8,29.19,North,354,9.0,13.0,60,0.00,,,0.00,WUHU216DAVISVP2,2013-08-03 21:01:00,
2013-08-03 17:02:00,77.6,63.3,29.19,NNW,335,10.0,13.0,61,0.00,,,0.00,WUHU216DAVISVP2,2013-08-03 21:02:00,
2013-08-03 17:03:00,77.6,63.3,29.19,North,354,9.0,13.0,61,0.00,,,0.00,WUHU216DAVISVP2,2013-08-03 21:03:00,
2013-08-03 17:04:00,77.6,62.8,29.19,North,349,11.0,13.0,60,0.00,,,0.00,WUHU216DAVISVP2,2013-08-03 21:04:00,
2013-08-03 17:05:00,77.5,62.3,29.19,North,354,7.0,14.0,59,0.00,,,0.00,WUHU216DAVISVP2,2013-08-03 21:05:00,
2013-08-03 17:07:00,77.6,63.1,29.19,NW,322,6.0,14.0,61,0.00,,,0.00,WUHU216DAVISVP2,2013-08-03 21:07:00,
2013-08-03 17:09:00,77.7,63.6,29.19,North,4,15.0,16.0,62,0.00,,,0.00,WUHU216DAVISVP2,2013-08-03 21:09:00,
2013-08-03 17:10:00,77.7,63.6,29.19,NNE,28,11.0,16.0,62,0.00,,,0.00,WUHU216DAVISVP2,2013-08-03 21:10:00,
2013-08-03 17:12:00,77.8,62.8,29.19,ENE,60,12.0,16.0,60,0.00,,,0.00,WUHU216DAVISVP2,2013-08-03 21:12:00,
2013-08-03 17:13:00,77.8,63.3,29.19,NNE,15,11.0,16.0,61,0.00,,,0.00,WUHU216DAVISVP2,2013-08-03 21:13:00,
2013-08-03 17:14:00,77.8,63.3,29.19,NNE,24,7.0,16.0,61,0.00,,,0.00,WUHU216DAVISVP2,2013-08-03 21:14:00,
2013-08-03 17:15:00,77.8,63.7,29.19,NE,36,10.0,16.0,62,0.00,,,0.00,WUHU216DAVISVP2,2013-08-03 21:15:00,
2013-08-03 17:18:00,78.0,63.7,29.19,North,359,11.0,16.0,61,0.00,,,0.00,WUHU216DAVISVP2,2013-08-03 21:18:00,
2013-08-03 17:19:00,78.0,64.2,29.19,NNE,12,9.0,16.0,62,0.00,,,0.00,WUHU216DAVISVP2,2013-08-03 21:19:00,
2013-08-03 17:20:00,77.9,63.1,29.19,NNE,14,12.0,16.0,60,0.00,,,0.00,WUHU216DAVISVP2,2013-08-03 21:20:00,
2013-08-03 17:23:00,77.7,63.4,29.19,North,354,11.0,16.0,61,0.00,,,0.00,WUHU216DAVISVP2,2013-08-03 21:23:00,
2013-08-03 17:24:00,77.6,62.8,29.20,North,4,8.0,16.0,60,0.00,,,0.00,WUHU216DAVISVP2,2013-08-03 21:24:00,
2013-08-03 17:26:00,77.5,62.5,29.20,NNW,347,12.0,18.0,60,0.00,,,0.00,WUHU216DAVISVP2,2013-08-03 21:26:00,
2013-08-03 17:28:00,77.2,62.2,29.21,North,11,7.0,18.0,60,0.00,,,0.00,WUHU216DAVISVP2,2013-08-03 21:28:00,
2013-08-03 17:29:00,77.1,62.1,29.21,NNE,12,8.0,18.0,60,0.00,,,0.00,WUHU216DAVISVP2,2013-08-03 21:29:00,
2013-08-03 17:31:00,76.8,62.1,29.20,North,359,9.0,18.0,60,0.00,,,0.00,WUHU216DAVISVP2,2013-08-03 21:31:00,
2013-08-03 17:33:00,76.3,62.1,29.20,North,359,8.0,18.0,61,0.00,,,0.00,WUHU216DAVISVP2,2013-08-03 21:33:00,
2013-08-03 17:34:00,76.2,62.4,29.20,NNW,344,6.0,18.0,62,0.00,,,0.00,WUHU216DAVISVP2,2013-08-03 21:34:00,
2013-08-03 17:36:00,76.1,62.1,29.20,North,354,6.0,18.0,62,0.00,,,0.00,WUHU216DAVISVP2,2013-08-03 21:36:00,
2013-08-03 17:38:00,76.1,62.1,29.20,NNE,16,7.0,18.0,62,0.00,,,0.00,WUHU216DAVISVP2,2013-08-03 21:38:00,
2013-08-03 17:39:00,76.1,62.6,29.20,NNE,26,15.0,18.0,63,0.00,,,0.00,WUHU216DAVISVP2,2013-08-03 21:39:00,
2013-08-03 17:41:00,76.4,62.0,29.20,North,4,12.0,18.0,61,0.00,,,0.00,WUHU216DAVISVP2,2013-08-03 21:41:00,
2013-08-03 17:42:00,76.6,62.1,29.20,NNE,19,15.0,18.0,61,0.00,,,0.00,WUHU216DAVISVP2,2013-08-03 21:42:00,
2013-08-03 17:43:00,76.8,61.9,29.20,NE,42,13.0,19.0,60,0.00,,,0.00,WUHU216DAVISVP2,2013-08-03 21:43:00,
2013-08-03 17:44:00,76.9,61.5,29.20,NE,34,11.0,19.0,59,0.00,,,0.00,WUHU216DAVISVP2,2013-08-03 21:44:00,
2013-08-03 17:45:00,76.9,61.5,29.20,NNE,29,11.0,19.0,59,0.00,,,0.00,WUHU216DAVISVP2,2013-08-03 21:45:00,
2013-08-03 17:47:00,77.0,61.1,29.20,NE,41,11.0,19.0,58,0.00,,,0.00,WUHU216DAVISVP2,2013-08-03 21:47:00,
2013-08-03 17:49:00,77.1,60.9,29.20,NE,47,9.0,19.0,57,0.00,,,0.00,WUHU216DAVISVP2,2013-08-03 21:49:00,
2013-08-03 17:50:00,77.1,60.9,29.20,NNE,24,9.0,19.0,57,0.00,,,0.00,WUHU216DAVISVP2,2013-08-03 21:50:00,
2013-08-03 17:52:00,76.9,60.7,29.20,NE,37,9.0,19.0,57,0.00,,,0.00,WUHU216DAVISVP2,2013-08-03 21:52:00,
2013-08-03 17:54:00,76.8,61.1,29.21,NNE,18,11.0,19.0,58,0.00,,,0.00,WUHU216DAVISVP2,2013-08-03 21:54:00,
2013-08-03 17:55:00,76.6,60.4,29.21,NNE,21,10.0,19.0,57,0.00,,,0.00,WUHU216DAVISVP2,2013-08-03 21:55:00,
2013-08-03 17:57:00,76.4,60.7,29.21,NNE,29,9.0,19.0,58,0.00,,,0.00,WUHU216DAVISVP2,2013-08-03 21:57:00,
2013-08-03 17:59:00,76.2,61.0,29.21,North,359,8.0,19.0,59,0.00,,,0.00,WUHU216DAVISVP2,2013-08-03 21:59:00,
2013-08-03 18:00:00,76.1,60.9,29.21,NNE,29,6.0,19.0,59,0.00,,,0.00,WUHU216DAVISVP2,2013-08-03 22:00:00,
2013-08-03 18:02:00,75.9,61.2,29.20,NNW,345,11.0,19.0,60,0.00,,,0.00,WUHU216DAVISVP2,2013-08-03 22:02:00,
2013-08-03 18:03:00,75.8,60.7,29.20,North,4,9.0,18.0,59,0.00,,,0.00,WUHU216DAVISVP2,2013-08-03 22:03:00,
2013-08-03 18:05:00,75.6,60.9,29.20,North,4,6.0,18.0,60,0.00,,,0.00,WUHU216DAVISVP2,2013-08-03 22:05:00,
2013-08-03 18:06:00,75.5,60.8,29.20,North,349,9.0,18.0,60,0.00,,,0.00,WUHU216DAVISVP2,2013-08-03 22:06:00,
2013-08-03 18:07:00,75.4,60.3,29.20,NE,41,9.0,16.0,59,0.00,,,0.00,WUHU216DAVISVP2,2013-08-03 22:07:00,
2013-08-03 18:08:00,75.4,59.8,29.20,North,359,14.0,16.0,58,0.00,,,0.00,WUHU216DAVISVP2,2013-08-03 22:08:00,
2013-08-03 18:10:00,75.4,60.3,29.21,North,4,8.0,16.0,59,0.00,,,0.00,WUHU216DAVISVP2,2013-08-03 22:10:00,
2013-08-03 18:11:00,75.4,59.8,29.20,NNE,21,7.0,16.0,58,0.00,,,0.00,WUHU216DAVISVP2,2013-08-03 22:11:00,
2013-08-03 18:12:00,75.4,59.8,29.20,NNE,21,7.0,16.0,58,0.00,,,0.00,WUHU216DAVISVP2,2013-08-03 22:12:00,
2013-08-03 18:13:00,75.4,59.8,29.21,NNE,14,8.0,16.0,58,0.00,,,0.00,WUHU216DAVISVP2,2013-08-03 22:13:00,
2013-08-03 18:15:00,75.3,59.2,29.21,NNE,18,9.0,16.0,57,0.00,,,0.00,WUHU216DAVISVP2,2013-08-03 22:15:00,
2013-08-03 18:17:00,75.3,59.7,29.21,NNE,19,8.0,16.0,58,0.00,,,0.00,WUHU216DAVISVP2,2013-08-03 22:17:00,
2013-08-03 18:18:00,75.4,59.8,29.21,North,354,12.0,16.0,58,0.00,,,0.00,WUHU216DAVISVP2,2013-08-03 22:18:00,
2013-08-03 18:20:00,75.4,59.8,29.21,NNE,18,10.0,16.0,58,0.00,,,0.00,WUHU216DAVISVP2,2013-08-03 22:20:00,
2013-08-03 18:22:00,75.5,59.9,29.21,NNE,24,8.0,16.0,58,0.00,,,0.00,WUHU216DAVISVP2,2013-08-03 22:22:00,
2013-08-03 18:23:00,75.6,59.5,29.21,North,359,11.0,16.0,57,0.00,,,0.00,WUHU216DAVISVP2,2013-08-03 22:23:00,
2013-08-03 18:25:00,75.7,59.1,29.21,North,4,9.0,16.0,56,0.00,,,0.00,WUHU216DAVISVP2,2013-08-03 22:25:00,
2013-08-03 18:27:00,75.8,59.7,29.21,NE,43,9.0,15.0,57,0.00,,,0.00,WUHU216DAVISVP2,2013-08-03 22:27:00,
2013-08-03 18:28:00,75.8,59.7,29.21,North,4,11.0,15.0,57,0.00,,,0.00,WUHU216DAVISVP2,2013-08-03 22:28:00,
2013-08-03 18:29:00,75.8,59.7,29.21,NNE,14,13.0,15.0,57,0.00,,,0.00,WUHU216DAVISVP2,2013-08-03 22:29:00,
2013-08-03 18:32:00,75.7,58.0,29.21,North,4,12.0,18.0,54,0.00,,,0.00,WUHU216DAVISVP2,2013-08-03 22:32:00,
2013-08-03 18:33:00,75.6,57.9,29.21,NNE,24,9.0,18.0,54,0.00,,,0.00,WUHU216DAVISVP2,2013-08-03 22:33:00,
2013-08-03 18:34:00,75.6,57.9,29.21,North,354,12.0,18.0,54,0.00,,,0.00,WUHU216DAVISVP2,2013-08-03 22:34:00,
2013-08-03 18:37:00,75.4,57.7,29.21,NNW,339,12.0,18.0,54,0.00,,,0.00,WUHU216DAVISVP2,2013-08-03 22:37:00,
2013-08-03 18:38:00,75.4,57.7,29.22,NNW,329,11.0,18.0,54,0.00,,,0.00,WUHU216DAVISVP2,2013-08-03 22:38:00,
2013-08-03 18:39:00,75.4,57.7,29.22,NNW,347,12.0,18.0,54,0.00,,,0.00,WUHU216DAVISVP2,2013-08-03 22:39:00,
2013-08-03 18:42:00,75.3,56.6,29.22,North,354,13.0,18.0,52,0.00,,,0.00,WUHU216DAVISVP2,2013-08-03 22:42:00,
2013-08-03 18:43:00,75.3,57.1,29.22,North,11,14.0,18.0,53,0.00,,,0.00,WUHU216DAVISVP2,2013-08-03 22:43:00,
2013-08-03 18:44:00,75.3,56.6,29.22,NNW,341,7.0,18.0,52,0.00,,,0.00,WUHU216DAVISVP2,2013-08-03 22:44:00,
2013-08-03 18:47:00,75.2,57.0,29.21,North,354,7.0,18.0,53,0.00,,,0.00,WUHU216DAVISVP2,2013-08-03 22:47:00,
2013-08-03 18:48:00,75.2,57.0,29.21,North,354,11.0,18.0,53,0.00,,,0.00,WUHU216DAVISVP2,2013-08-03 22:48:00,
2013-08-03 18:49:00,75.2,57.0,29.22,North,359,15.0,18.0,53,0.00,,,0.00,WUHU216DAVISVP2,2013-08-03 22:49:00,
2013-08-03 18:50:00,75.2,57.0,29.21,NNW,347,10.0,18.0,53,0.00,,,0.00,WUHU216DAVISVP2,2013-08-03 22:50:00,
2013-08-03 18:52:00,75.1,56.4,29.21,North,4,8.0,18.0,52,0.00,,,0.00,WUHU216DAVISVP2,2013-08-03 22:52:00,
2013-08-03 18:53:00,75.1,56.9,29.21,North,354,12.0,18.0,53,0.00,,,0.00,WUHU216DAVISVP2,2013-08-03 22:53:00,
2013-08-03 18:54:00,75.1,56.4,29.21,NNE,26,12.0,18.0,52,0.00,,,0.00,WUHU216DAVISVP2,2013-08-03 22:54:00,
2013-08-03 18:55:00,75.0,56.3,29.21,NNE,16,10.0,18.0,52,0.00,,,0.00,WUHU216DAVISVP2,2013-08-03 22:55:00,
2013-08-03 18:57:00,74.8,56.7,29.21,NNE,13,12.0,19.0,53,0.00,,,0.00,WUHU216DAVISVP2,2013-08-03 22:57:00,
2013-08-03 18:58:00,74.8,56.7,29.21,NNW,342,12.0,19.0,53,0.00,,,0.00,WUHU216DAVISVP2,2013-08-03 22:58:00,
2013-08-03 18:59:00,74.8,56.1,29.21,NNE,16,11.0,19.0,52,0.00,,,0.00,WUHU216DAVISVP2,2013-08-03 22:59:00,
2013-08-03 19:00:00,74.7,56.0,29.22,North,354,11.0,19.0,52,0.00,,,0.00,WUHU216DAVISVP2,2013-08-03 23:00:00,
2013-08-03 19:03:00,74.7,56.6,29.22,North,4,9.0,19.0,53,0.00,,,0.00,WUHU216DAVISVP2,2013-08-03 23:03:00,
2013-08-03 19:04:00,74.6,57.0,29.22,North,350,8.0,19.0,54,0.00,,,0.00,WUHU216DAVISVP2,2013-08-03 23:04:00,
2013-08-03 19:05:00,74.6,57.0,29.22,North,4,11.0,19.0,54,0.00,,,0.00,WUHU216DAVISVP2,2013-08-03 23:05:00,
2013-08-03 19:08:00,74.4,56.8,29.22,NNW,345,9.0,19.0,54,0.00,,,0.00,WUHU216DAVISVP2,2013-08-03 23:08:00,
2013-08-03 19:09:00,74.4,56.8,29.22,North,349,9.0,19.0,54,0.00,,,0.00,WUHU216DAVISVP2,2013-08-03 23:09:00,
2013-08-03 19:10:00,74.4,56.3,29.22,NNW,338,12.0,19.0,53,0.00,,,0.00,WUHU216DAVISVP2,2013-08-03 23:10:00,
2013-08-03 19:13:00,74.4,56.3,29.21,NNE,31,7.0,19.0,53,0.00,,,0.00,WUHU216DAVISVP2,2013-08-03 23:13:00,
2013-08-03 19:14:00,74.4,56.8,29.21,NNE,27,7.0,19.0,54,0.00,,,0.00,WUHU216DAVISVP2,2013-08-03 23:14:00,
2013-08-03 19:15:00,74.5,56.9,29.22,North,354,6.0,18.0,54,0.00,,,0.00,WUHU216DAVISVP2,2013-08-03 23:15:00,
2013-08-03 19:18:00,74.5,56.9,29.22,North,359,8.0,18.0,54,0.00,,,0.00,WUHU216DAVISVP2,2013-08-03 23:18:00,
2013-08-03 19:19:00,74.5,56.9,29.22,NE,34,9.0,18.0,54,0.00,,,0.00,WUHU216DAVISVP2,2013-08-03 23:19:00,
2013-08-03 19:20:00,74.5,57.4,29.22,NNW,343,6.0,18.0,55,0.00,,,0.00,WUHU216DAVISVP2,2013-08-03 23:20:00,
2013-08-03 19:23:00,74.4,57.3,29.22,NNW,348,9.0,14.0,55,0.00,,,0.00,WUHU216DAVISVP2,2013-08-03 23:23:00,
2013-08-03 19:24:00,74.4,57.3,29.22,NNE,24,10.0,14.0,55,0.00,,,0.00,WUHU216DAVISVP2,2013-08-03 23:24:00,
2013-08-03 19:26:00,74.3,57.2,29.22,North,359,7.0,14.0,55,0.00,,,0.00,WUHU216DAVISVP2,2013-08-03 23:26:00,
2013-08-03 19:28:00,74.1,56.0,29.22,NNE,29,9.0,14.0,53,0.00,,,0.00,WUHU216DAVISVP2,2013-08-03 23:28:00,
2013-08-03 19:29:00,74.0,55.9,29.22,North,8,11.0,14.0,53,0.00,,,0.00,WUHU216DAVISVP2,2013-08-03 23:29:00,
2013-08-03 19:30:00,74.0,55.9,29.22,North,354,9.0,14.0,53,0.00,,,0.00,WUHU216DAVISVP2,2013-08-03 23:30:00,
2013-08-03 19:31:00,73.9,55.8,29.22,North,4,11.0,14.0,53,0.00,,,0.00,WUHU216DAVISVP2,2013-08-03 23:31:00,
2013-08-03 19:34:00,73.9,55.8,29.22,North,4,9.0,14.0,53,0.00,,,0.00,WUHU216DAVISVP2,2013-08-03 23:34:00,
2013-08-03 19:35:00,73.8,55.7,29.22,North,4,7.0,14.0,53,0.00,,,0.00,WUHU216DAVISVP2,2013-08-03 23:35:00,
2013-08-03 19:36:00,73.8,55.7,29.22,NNW,345,7.0,14.0,53,0.00,,,0.00,WUHU216DAVISVP2,2013-08-03 23:36:00,
2013-08-03 19:39:00,73.7,55.6,29.22,North,4,6.0,14.0,53,0.00,,,0.00,WUHU216DAVISVP2,2013-08-03 23:39:00,
2013-08-03 19:40:00,73.6,56.1,29.22,North,354,9.0,14.0,54,0.00,,,0.00,WUHU216DAVISVP2,2013-08-03 23:40:00,
2013-08-03 19:41:00,73.6,56.1,29.22,North,354,8.0,14.0,54,0.00,,,0.00,WUHU216DAVISVP2,2013-08-03 23:41:00,
2013-08-03 19:44:00,73.5,56.0,29.23,NNW,330,5.0,14.0,54,0.00,,,0.00,WUHU216DAVISVP2,2013-08-03 23:44:00,
2013-08-03 19:45:00,73.4,56.4,29.23,NNW,344,6.0,14.0,55,0.00,,,0.00,WUHU216DAVISVP2,2013-08-03 23:45:00,
2013-08-03 19:47:00,73.3,56.3,29.22,North,359,7.0,14.0,55,0.00,,,0.00,WUHU216DAVISVP2,2013-08-03 23:47:00,
2013-08-03 19:49:00,73.3,56.8,29.22,North,359,8.0,13.0,56,0.00,,,0.00,WUHU216DAVISVP2,2013-08-03 23:49:00,
2013-08-03 19:50:00,73.2,56.7,29.22,NNW,340,7.0,13.0,56,0.00,,,0.00,WUHU216DAVISVP2,2013-08-03 23:50:00,
2013-08-03 19:53:00,73.0,56.5,29.22,North,4,6.0,13.0,56,0.00,,,0.00,WUHU216DAVISVP2,2013-08-03 23:53:00,
2013-08-03 19:55:00,73.0,56.5,29.22,North,359,7.0,13.0,56,0.00,,,0.00,WUHU216DAVISVP2,2013-08-03 23:55:00,
2013-08-03 19:58:00,72.8,56.8,29.22,North,350,6.0,13.0,57,0.00,,,0.00,WUHU216DAVISVP2,2013-08-03 23:58:00,
2013-08-03 20:00:00,72.7,56.8,29.22,North,359,8.0,12.0,57,0.00,,,0.00,WUHU216DAVISVP2,2013-08-04 00:00:00,
2013-08-03 20:04:00,72.3,56.9,29.22,NNW,330,6.0,12.0,58,0.00,,,0.00,WUHU216DAVISVP2,2013-08-04 00:04:00,
2013-08-03 20:05:00,72.2,56.8,29.22,NNW,342,6.0,12.0,58,0.00,,,0.00,WUHU216DAVISVP2,2013-08-04 00:05:00,
2013-08-03 20:06:00,72.2,56.8,29.22,North,359,5.0,12.0,58,0.00,,,0.00,WUHU216DAVISVP2,2013-08-04 00:06:00,
2013-08-03 20:09:00,72.0,56.6,29.22,North,349,6.0,12.0,58,0.00,,,0.00,WUHU216DAVISVP2,2013-08-04 00:09:00,
2013-08-03 20:10:00,72.0,57.1,29.22,NNE,12,7.0,12.0,59,0.00,,,0.00,WUHU216DAVISVP2,2013-08-04 00:10:00,
2013-08-03 20:11:00,71.9,57.0,29.22,North,359,7.0,12.0,59,0.00,,,0.00,WUHU216DAVISVP2,2013-08-04 00:11:00,
2013-08-03 20:12:00,71.9,56.5,29.22,NNW,345,6.0,11.0,58,0.00,,,0.00,WUHU216DAVISVP2,2013-08-04 00:12:00,
2013-08-03 20:14:00,71.8,56.4,29.22,North,354,5.0,10.0,58,0.00,,,0.00,WUHU216DAVISVP2,2013-08-04 00:14:00,
2013-08-03 20:15:00,71.8,56.9,29.22,North,354,4.0,10.0,59,0.00,,,0.00,WUHU216DAVISVP2,2013-08-04 00:15:00,
2013-08-03 20:16:00,71.7,56.8,29.22,NNW,339,6.0,10.0,59,0.00,,,0.00,WUHU216DAVISVP2,2013-08-04 00:16:00,
2013-08-03 20:17:00,71.5,57.1,29.22,North,354,8.0,10.0,60,0.00,,,0.00,WUHU216DAVISVP2,2013-08-04 00:17:00,
2013-08-03 20:19:00,71.3,56.9,29.22,North,354,6.0,10.0,60,0.00,,,0.00,WUHU216DAVISVP2,2013-08-04 00:19:00,
2013-08-03 20:20:00,71.3,56.9,29.22,NNW,346,5.0,10.0,60,0.00,,,0.00,WUHU216DAVISVP2,2013-08-04 00:20:00,
2013-08-03 20:21:00,71.2,56.8,29.22,NNW,344,5.0,10.0,60,0.00,,,0.00,WUHU216DAVISVP2,2013-08-04 00:21:00,
2013-08-03 20:23:00,71.0,56.6,29.22,NNW,345,6.0,10.0,60,0.00,,,0.00,WUHU216DAVISVP2,2013-08-04 00:23:00,
2013-08-03 20:25:00,70.8,56.4,29.22,NNW,334,5.0,10.0,60,0.00,,,0.00,WUHU216DAVISVP2,2013-08-04 00:25:00,
2013-08-03 20:26:00,70.7,56.3,29.22,NNW,341,5.0,10.0,60,0.00,,,0.00,WUHU216DAVISVP2,2013-08-04 00:26:00,
2013-08-03 20:28:00,70.6,56.7,29.22,NW,323,5.0,10.0,61,0.00,,,0.00,WUHU216DAVISVP2,2013-08-04 00:28:00,
2013-08-03 20:30:00,70.4,56.5,29.22,NNW,328,6.0,9.0,61,0.00,,,0.00,WUHU216DAVISVP2,2013-08-04 00:30:00,
2013-08-03 20:31:00,70.4,56.5,29.23,North,349,7.0,9.0,61,0.00,,,0.00,WUHU216DAVISVP2,2013-08-04 00:31:00,
2013-08-03 20:32:00,70.3,56.4,29.23,NNW,339,6.0,9.0,61,0.00,,,0.00,WUHU216DAVISVP2,2013-08-04 00:32:00,
2013-08-03 20:33:00,70.2,56.3,29.23,NNW,341,4.0,9.0,61,0.00,,,0.00,WUHU216DAVISVP2,2013-08-04 00:33:00,
2013-08-03 20:35:00,69.9,56.5,29.23,NNW,332,5.0,9.0,62,0.00,,,0.00,WUHU216DAVISVP2,2013-08-04 00:35:00,
2013-08-03 20:36:00,69.9,56.5,29.23,NNW,333,5.0,9.0,62,0.00,,,0.00,WUHU216DAVISVP2,2013-08-04 00:36:00,
2013-08-03 20:37:00,69.7,56.7,29.22,NNW,329,5.0,8.0,63,0.00,,,0.00,WUHU216DAVISVP2,2013-08-04 00:37:00,
2013-08-03 20:38:00,69.7,56.7,29.22,NNW,329,5.0,8.0,63,0.00,,,0.00,WUHU216DAVISVP2,2013-08-04 00:38:00,
2013-08-03 20:40:00,69.4,56.9,29.22,NNW,329,5.0,8.0,64,0.00,,,0.00,WUHU216DAVISVP2,2013-08-04 00:40:00,
2013-08-03 20:41:00,69.4,56.9,29.22,NNW,331,7.0,8.0,64,0.00,,,0.00,WUHU216DAVISVP2,2013-08-04 00:41:00,
2013-08-03 20:42:00,69.3,56.8,29.22,NW,324,5.0,8.0,64,0.00,,,0.00,WUHU216DAVISVP2,2013-08-04 00:42:00,
2013-08-03 20:43:00,69.3,56.8,29.22,NNW,335,7.0,8.0,64,0.00,,,0.00,WUHU216DAVISVP2,2013-08-04 00:43:00,
2013-08-03 20:45:00,69.1,56.6,29.22,NNW,330,5.0,9.0,64,0.00,,,0.00,WUHU216DAVISVP2,2013-08-04 00:45:00,
2013-08-03 20:46:00,69.1,56.2,29.22,NW,326,5.0,9.0,63,0.00,,,0.00,WUHU216DAVISVP2,2013-08-04 00:46:00,
2013-08-03 20:48:00,69.0,56.5,29.23,NW,312,5.0,9.0,64,0.00,,,0.00,WUHU216DAVISVP2,2013-08-04 00:48:00,
2013-08-03 20:49:00,68.9,56.0,29.23,NNW,332,5.0,9.0,63,0.00,,,0.00,WUHU216DAVISVP2,2013-08-04 00:49:00,
2013-08-03 20:51:00,68.8,55.9,29.23,North,354,8.0,9.0,63,0.00,,,0.00,WUHU216DAVISVP2,2013-08-04 00:51:00,
2013-08-03 20:53:00,68.7,55.8,29.23,NNW,327,5.0,11.0,63,0.00,,,0.00,WUHU216DAVISVP2,2013-08-04 00:53:00,
2013-08-03 20:54:00,68.7,55.8,29.23,North,354,9.0,11.0,63,0.00,,,0.00,WUHU216DAVISVP2,2013-08-04 00:54:00,
2013-08-03 20:56:00,68.6,55.7,29.23,NNW,348,6.0,11.0,63,0.00,,,0.00,WUHU216DAVISVP2,2013-08-04 00:56:00,
2013-08-03 20:57:00,68.5,55.6,29.23,North,350,6.0,11.0,63,0.00,,,0.00,WUHU216DAVISVP2,2013-08-04 00:57:00,
2013-08-03 20:58:00,68.5,55.6,29.23,NNW,343,6.0,11.0,63,0.00,,,0.00,WUHU216DAVISVP2,2013-08-04 00:58:00,
2013-08-03 20:59:00,68.4,55.5,29.22,North,11,4.0,11.0,63,0.00,,,0.00,WUHU216DAVISVP2,2013-08-04 00:59:00,
2013-08-03 21:01:00,68.2,55.7,29.22,NNW,348,6.0,11.0,64,0.00,,,0.00,WUHU216DAVISVP2,2013-08-04 01:01:00,
2013-08-03 21:02:00,68.2,55.7,29.22,North,349,7.0,11.0,64,0.00,,,0.00,WUHU216DAVISVP2,2013-08-04 01:02:00,
2013-08-03 21:03:00,68.1,55.6,29.22,NNW,345,7.0,11.0,64,0.00,,,0.00,WUHU216DAVISVP2,2013-08-04 01:03:00,
2013-08-03 21:04:00,68.0,55.5,29.22,North,349,8.0,11.0,64,0.00,,,0.00,WUHU216DAVISVP2,2013-08-04 01:04:00,
2013-08-03 21:07:00,67.9,55.5,29.23,NNW,335,5.0,11.0,64,0.00,,,0.00,WUHU216DAVISVP2,2013-08-04 01:07:00,
2013-08-03 21:08:00,67.8,55.8,29.23,NNW,348,7.0,11.0,65,0.00,,,0.00,WUHU216DAVISVP2,2013-08-04 01:08:00,
2013-08-03 21:10:00,67.7,55.7,29.23,North,349,4.0,11.0,65,0.00,,,0.00,WUHU216DAVISVP2,2013-08-04 01:10:00,
2013-08-03 21:12:00,67.6,55.6,29.23,NNW,343,8.0,11.0,65,0.00,,,0.00,WUHU216DAVISVP2,2013-08-04 01:12:00,
2013-08-03 21:14:00,67.5,55.5,29.23,NNW,338,7.0,9.0,65,0.00,,,0.00,WUHU216DAVISVP2,2013-08-04 01:14:00,
2013-08-03 21:16:00,67.4,55.8,29.23,NNW,341,5.0,9.0,66,0.00,,,0.00,WUHU216DAVISVP2,2013-08-04 01:16:00,
2013-08-03 21:17:00,67.3,55.7,29.23,NNW,345,7.0,9.0,66,0.00,,,0.00,WUHU216DAVISVP2,2013-08-04 01:17:00,
2013-08-03 21:19:00,67.2,55.6,29.23,NNW,339,4.0,9.0,66,0.00,,,0.00,WUHU216DAVISVP2,2013-08-04 01:19:00,
2013-08-03 21:21:00,67.1,55.5,29.23,NNW,341,5.0,9.0,66,0.00,,,0.00,WUHU216DAVISVP2,2013-08-04 01:21:00,
2013-08-03 21:22:00,67.0,55.9,29.23,NNW,341,4.0,9.0,67,0.00,,,0.00,WUHU216DAVISVP2,2013-08-04 01:22:00,
2013-08-03 21:23:00,66.9,55.8,29.23,NNW,341,2.0,9.0,67,0.00,,,0.00,WUHU216DAVISVP2,2013-08-04 01:23:00,
2013-08-03 21:24:00,66.8,55.7,29.23,NNW,342,5.0,9.0,67,0.00,,,0.00,WUHU216DAVISVP2,2013-08-04 01:24:00,
2013-08-03 21:26:00,66.7,55.6,29.23,NNW,340,6.0,9.0,67,0.00,,,0.00,WUHU216DAVISVP2,2013-08-04 01:26:00,
2013-08-03 21:27:00,66.7,55.6,29.23,NNW,344,5.0,9.0,67,0.00,,,0.00,WUHU216DAVISVP2,2013-08-04 01:27:00,
2013-08-03 21:28:00,66.7,55.6,29.23,NW,323,4.0,9.0,67,0.00,,,0.00,WUHU216DAVISVP2,2013-08-04 01:28:00,
2013-08-03 21:29:00,66.7,55.6,29.23,NNW,344,6.0,9.0,67,0.00,,,0.00,WUHU216DAVISVP2,2013-08-04 01:29:00,
2013-08-03 21:31:00,66.6,55.5,29.23,North,354,6.0,9.0,67,0.00,,,0.00,WUHU216DAVISVP2,2013-08-04 01:31:00,
2013-08-03 21:32:00,66.6,55.5,29.23,NNW,343,7.0,8.0,67,0.00,,,0.00,WUHU216DAVISVP2,2013-08-04 01:32:00,
2013-08-03 21:33:00,66.6,55.5,29.23,NNW,347,5.0,8.0,67,0.00,,,0.00,WUHU216DAVISVP2,2013-08-04 01:33:00,
2013-08-03 21:34:00,66.6,55.5,29.23,NNW,347,4.0,8.0,67,0.00,,,0.00,WUHU216DAVISVP2,2013-08-04 01:34:00,
2013-08-03 21:36:00,66.4,55.7,29.24,NNW,331,5.0,8.0,68,0.00,,,0.00,WUHU216DAVISVP2,2013-08-04 01:36:00,
2013-08-03 21:38:00,66.3,55.6,29.24,NW,325,6.0,8.0,68,0.00,,,0.00,WUHU216DAVISVP2,2013-08-04 01:38:00,
2013-08-03 21:39:00,66.3,55.6,29.24,NW,312,4.0,8.0,68,0.00,,,0.00,WUHU216DAVISVP2,2013-08-04 01:39:00,
2013-08-03 21:40:00,66.2,55.5,29.24,NNW,335,6.0,8.0,68,0.00,,,0.00,WUHU216DAVISVP2,2013-08-04 01:40:00,
2013-08-03 21:42:00,66.1,55.4,29.24,NNW,334,5.0,8.0,68,0.00,,,0.00,WUHU216DAVISVP2,2013-08-04 01:42:00,
2013-08-03 21:43:00,66.1,55.4,29.24,NNW,344,8.0,8.0,68,0.00,,,0.00,WUHU216DAVISVP2,2013-08-04 01:43:00,
2013-08-03 21:44:00,66.1,55.4,29.24,NNW,343,2.0,8.0,68,0.00,,,0.00,WUHU216DAVISVP2,2013-08-04 01:44:00,
2013-08-03 21:45:00,66.1,55.4,29.24,North,350,5.0,8.0,68,0.00,,,0.00,WUHU216DAVISVP2,2013-08-04 01:45:00,
2013-08-03 21:48:00,66.1,55.4,29.24,NNW,330,6.0,8.0,68,0.00,,,0.00,WUHU216DAVISVP2,2013-08-04 01:48:00,
2013-08-03 21:49:00,66.0,55.3,29.24,NNW,330,6.0,8.0,68,0.00,,,0.00,WUHU216DAVISVP2,2013-08-04 01:49:00,
2013-08-03 21:50:00,66.0,55.3,29.23,NNW,339,3.0,8.0,68,0.00,,,0.00,WUHU216DAVISVP2,2013-08-04 01:50:00,
2013-08-03 21:53:00,65.9,55.2,29.24,NNW,327,5.0,8.0,68,0.00,,,0.00,WUHU216DAVISVP2,2013-08-04 01:53:00,
2013-08-03 21:54:00,65.8,55.1,29.24,NNW,327,6.0,8.0,68,0.00,,,0.00,WUHU216DAVISVP2,2013-08-04 01:54:00,
2013-08-03 21:55:00,65.7,55.4,29.24,NNW,329,6.0,8.0,69,0.00,,,0.00,WUHU216DAVISVP2,2013-08-04 01:55:00,
2013-08-03 21:58:00,65.6,55.3,29.24,NNW,329,4.0,8.0,69,0.00,,,0.00,WUHU216DAVISVP2,2013-08-04 01:58:00,
2013-08-03 21:59:00,65.6,55.3,29.24,NNW,328,5.0,8.0,69,0.00,,,0.00,WUHU216DAVISVP2,2013-08-04 01:59:00,
2013-08-03 22:00:00,65.6,55.3,29.24,NNW,329,2.0,8.0,69,0.00,,,0.00,WUHU216DAVISVP2,2013-08-04 02:00:00,
2013-08-03 22:03:00,65.4,55.5,29.24,NNW,329,6.0,7.0,70,0.00,,,0.00,WUHU216DAVISVP2,2013-08-04 02:03:00,
2013-08-03 22:04:00,65.4,55.5,29.24,NNW,329,4.0,7.0,70,0.00,,,0.00,WUHU216DAVISVP2,2013-08-04 02:04:00,
2013-08-03 22:05:00,65.4,55.5,29.24,NNW,329,3.0,7.0,70,0.00,,,0.00,WUHU216DAVISVP2,2013-08-04 02:05:00,
2013-08-03 22:09:00,65.3,55.4,29.24,NW,314,5.0,7.0,70,0.00,,,0.00,WUHU216DAVISVP2,2013-08-04 02:09:00,
2013-08-03 22:10:00,65.3,55.4,29.24,NW,322,4.0,7.0,70,0.00,,,0.00,WUHU216DAVISVP2,2013-08-04 02:10:00,
2013-08-03 22:14:00,65.1,55.6,29.25,NNW,330,6.0,7.0,71,0.00,,,0.00,WUHU216DAVISVP2,2013-08-04 02:14:00,
2013-08-03 22:15:00,65.1,55.6,29.25,NNW,330,5.0,7.0,71,0.00,,,0.00,WUHU216DAVISVP2,2013-08-04 02:15:00,
2013-08-03 22:19:00,64.8,55.7,29.25,NNW,330,5.0,7.0,72,0.00,,,0.00,WUHU216DAVISVP2,2013-08-04 02:19:00,
2013-08-03 22:20:00,64.8,55.7,29.25,NNW,330,4.0,7.0,72,0.00,,,0.00,WUHU216DAVISVP2,2013-08-04 02:20:00,
2013-08-03 22:21:00,64.7,55.6,29.25,NNW,330,6.0,7.0,72,0.00,,,0.00,WUHU216DAVISVP2,2013-08-04 02:21:00,
2013-08-03 22:24:00,64.6,55.5,29.25,NNW,343,5.0,7.0,72,0.00,,,0.00,WUHU216DAVISVP2,2013-08-04 02:24:00,
2013-08-03 22:25:00,64.6,55.5,29.25,NNW,335,6.0,7.0,72,0.00,,,0.00,WUHU216DAVISVP2,2013-08-04 02:25:00,
2013-08-03 22:27:00,64.5,55.4,29.25,NNW,336,4.0,8.0,72,0.00,,,0.00,WUHU216DAVISVP2,2013-08-04 02:27:00,
2013-08-03 22:29:00,64.4,55.7,29.25,NNW,330,4.0,8.0,73,0.00,,,0.00,WUHU216DAVISVP2,2013-08-04 02:29:00,
2013-08-03 22:30:00,64.4,55.7,29.25,NNW,330,4.0,8.0,73,0.00,,,0.00,WUHU216DAVISVP2,2013-08-04 02:30:00,
2013-08-03 22:32:00,64.3,55.6,29.25,NNW,332,6.0,8.0,73,0.00,,,0.00,WUHU216DAVISVP2,2013-08-04 02:32:00,
2013-08-03 22:35:00,64.3,55.6,29.25,NNW,335,4.0,8.0,73,0.00,,,0.00,WUHU216DAVISVP2,2013-08-04 02:35:00,
2013-08-03 22:37:00,64.2,55.5,29.25,NNW,327,5.0,8.0,73,0.00,,,0.00,WUHU216DAVISVP2,2013-08-04 02:37:00,
2013-08-03 22:40:00,64.3,55.6,29.25,NNW,340,7.0,9.0,73,0.00,,,0.00,WUHU216DAVISVP2,2013-08-04 02:40:00,
2013-08-03 22:41:00,64.3,55.2,29.25,NNW,336,6.0,9.0,72,0.00,,,0.00,WUHU216DAVISVP2,2013-08-04 02:41:00,
2013-08-03 22:42:00,64.3,55.2,29.25,NW,324,4.0,9.0,72,0.00,,,0.00,WUHU216DAVISVP2,2013-08-04 02:42:00,
2013-08-03 22:45:00,64.4,55.3,29.25,NW,324,5.0,9.0,72,0.00,,,0.00,WUHU216DAVISVP2,2013-08-04 02:45:00,
2013-08-03 22:46:00,64.4,55.3,29.25,NW,326,6.0,9.0,72,0.00,,,0.00,WUHU216DAVISVP2,2013-08-04 02:46:00,
2013-08-03 22:47:00,64.3,55.2,29.26,NNW,328,3.0,9.0,72,0.00,,,0.00,WUHU216DAVISVP2,2013-08-04 02:47:00,
2013-08-03 22:50:00,64.3,55.2,29.26,NNW,327,4.0,9.0,72,0.00,,,0.00,WUHU216DAVISVP2,2013-08-04 02:50:00,
2013-08-03 22:51:00,64.3,55.2,29.26,NNW,327,4.0,9.0,72,0.00,,,0.00,WUHU216DAVISVP2,2013-08-04 02:51:00,
2013-08-03 22:52:00,64.2,55.1,29.25,NNW,330,6.0,9.0,72,0.00,,,0.00,WUHU216DAVISVP2,2013-08-04 02:52:00,
2013-08-03 22:55:00,64.1,55.4,29.25,NW,325,5.0,9.0,73,0.00,,,0.00,WUHU216DAVISVP2,2013-08-04 02:55:00,
2013-08-03 22:56:00,64.1,55.4,29.25,NW,326,3.0,9.0,73,0.00,,,0.00,WUHU216DAVISVP2,2013-08-04 02:56:00,
2013-08-03 22:58:00,64.1,55.4,29.25,NNW,327,4.0,8.0,73,0.00,,,0.00,WUHU216DAVISVP2,2013-08-04 02:58:00,
2013-08-03 23:00:00,64.0,55.3,29.25,NNW,328,4.0,8.0,73,0.00,,,0.00,WUHU216DAVISVP2,2013-08-04 03:00:00,
2013-08-03 23:01:00,64.0,55.3,29.25,NNW,327,5.0,8.0,73,0.00,,,0.00,WUHU216DAVISVP2,2013-08-04 03:01:00,
2013-08-03 23:02:00,64.0,55.3,29.25,NNW,327,4.0,8.0,73,0.00,,,0.00,WUHU216DAVISVP2,2013-08-04 03:02:00,
2013-08-03 23:03:00,64.0,55.3,29.25,NNW,327,2.0,8.0,73,0.00,,,0.00,WUHU216DAVISVP2,2013-08-04 03:03:00,
2013-08-03 23:05:00,64.0,55.3,29.25,NW,306,1.0,8.0,73,0.00,,,0.00,WUHU216DAVISVP2,2013-08-04 03:05:00,
2013-08-03 23:06:00,64.0,55.3,29.25,NW,312,4.0,8.0,73,0.00,,,0.00,WUHU216DAVISVP2,2013-08-04 03:06:00,
2013-08-03 23:07:00,64.0,55.3,29.25,NW,319,2.0,8.0,73,0.00,,,0.00,WUHU216DAVISVP2,2013-08-04 03:07:00,
2013-08-03 23:08:00,64.0,55.3,29.25,NW,319,4.0,8.0,73,0.00,,,0.00,WUHU216DAVISVP2,2013-08-04 03:08:00,
2013-08-03 23:10:00,63.9,55.1,29.26,NW,319,4.0,7.0,73,0.00,,,0.00,WUHU216DAVISVP2,2013-08-04 03:10:00,
2013-08-03 23:11:00,63.9,55.1,29.26,NW,319,2.0,7.0,73,0.00,,,0.00,WUHU216DAVISVP2,2013-08-04 03:11:00,
2013-08-03 23:12:00,63.9,55.1,29.26,NW,319,2.0,7.0,73,0.00,,,0.00,WUHU216DAVISVP2,2013-08-04 03:12:00,
2013-08-03 23:13:00,63.8,55.0,29.26,NW,319,4.0,7.0,73,0.00,,,0.00,WUHU216DAVISVP2,2013-08-04 03:13:00,
2013-08-03 23:15:00,63.7,55.0,29.25,NW,319,5.0,6.0,73,0.00,,,0.00,WUHU216DAVISVP2,2013-08-04 03:15:00,
2013-08-03 23:17:00,63.7,55.0,29.25,NW,319,3.0,6.0,73,0.00,,,0.00,WUHU216DAVISVP2,2013-08-04 03:17:00,
2013-08-03 23:18:00,63.7,55.4,29.25,NW,319,4.0,6.0,74,0.00,,,0.00,WUHU216DAVISVP2,2013-08-04 03:18:00,
2013-08-03 23:20:00,63.6,55.3,29.25,NW,320,4.0,6.0,74,0.00,,,0.00,WUHU216DAVISVP2,2013-08-04 03:20:00,
2013-08-03 23:22:00,63.6,55.3,29.25,NW,319,3.0,6.0,74,0.00,,,0.00,WUHU216DAVISVP2,2013-08-04 03:22:00,
2013-08-03 23:23:00,63.6,55.3,29.25,NW,319,4.0,6.0,74,0.00,,,0.00,WUHU216DAVISVP2,2013-08-04 03:23:00,
2013-08-03 23:26:00,63.6,54.9,29.25,NW,319,0.0,6.0,73,0.00,,,0.00,WUHU216DAVISVP2,2013-08-04 03:26:00,
2013-08-03 23:27:00,63.6,54.9,29.25,NW,319,2.0,6.0,73,0.00,,,0.00,WUHU216DAVISVP2,2013-08-04 03:27:00,
2013-08-03 23:28:00,63.6,54.9,29.25,NW,319,3.0,6.0,73,0.00,,,0.00,WUHU216DAVISVP2,2013-08-04 03:28:00,
2013-08-03 23:32:00,63.7,54.9,29.26,NW,319,5.0,6.0,73,0.00,,,0.00,WUHU216DAVISVP2,2013-08-04 03:32:00,
2013-08-03 23:33:00,63.7,54.9,29.26,NW,319,4.0,6.0,73,0.00,,,0.00,WUHU216DAVISVP2,2013-08-04 03:33:00,
2013-08-03 23:34:00,63.6,54.9,29.26,NW,319,4.0,6.0,73,0.00,,,0.00,WUHU216DAVISVP2,2013-08-04 03:34:00,
2013-08-03 23:37:00,63.5,54.8,29.26,NW,319,2.0,6.0,73,0.00,,,0.00,WUHU216DAVISVP2,2013-08-04 03:37:00,
2013-08-03 23:38:00,63.5,54.7,29.26,NW,319,4.0,6.0,73,0.00,,,0.00,WUHU216DAVISVP2,2013-08-04 03:38:00,
2013-08-03 23:39:00,63.5,54.7,29.26,NW,319,4.0,6.0,73,0.00,,,0.00,WUHU216DAVISVP2,2013-08-04 03:39:00,
2013-08-03 23:42:00,63.5,54.7,29.25,NW,319,4.0,6.0,73,0.00,,,0.00,WUHU216DAVISVP2,2013-08-04 03:42:00,
2013-08-03 23:43:00,63.4,54.6,29.25,NW,319,3.0,6.0,73,0.00,,,0.00,WUHU216DAVISVP2,2013-08-04 03:43:00,
2013-08-03 23:44:00,63.4,54.6,29.25,NW,323,6.0,7.0,73,0.00,,,0.00,WUHU216DAVISVP2,2013-08-04 03:44:00,
2013-08-03 23:47:00,63.5,54.7,29.26,NW,323,2.0,7.0,73,0.00,,,0.00,WUHU216DAVISVP2,2013-08-04 03:47:00,
2013-08-03 23:48:00,63.5,54.7,29.26,NW,323,2.0,7.0,73,0.00,,,0.00,WUHU216DAVISVP2,2013-08-04 03:48:00,
2013-08-03 23:49:00,63.4,54.7,29.26,NW,323,5.0,7.0,73,0.00,,,0.00,WUHU216DAVISVP2,2013-08-04 03:49:00,
2013-08-03 23:53:00,63.4,54.7,29.26,NW,323,5.0,7.0,73,0.00,,,0.00,WUHU216DAVISVP2,2013-08-04 03:53:00,
2013-08-03 23:54:00,63.4,54.7,29.26,NNW,332,5.0,7.0,73,0.00,,,0.00,WUHU216DAVISVP2,2013-08-04 03:54:00,
2013-08-03 23:58:00,63.3,54.6,29.26,NW,321,5.0,7.0,73,0.00,,,0.00,WUHU216DAVISVP2,2013-08-04 03:58:00,
2013-08-03 23:59:00,63.3,54.6,29.26,NW,321,4.0,7.0,73,0.00,,,0.00,WUHU216DAVISVP2,2013-08-04 03:59:00,